<?xml version="1.0" encoding="UTF-8" standalone="no" ?><gpx xmlns="http://www.topografix.com/GPX/1/1" xmlns:gpxx="http://www.garmin.com/xmlschemas/GpxExtensions/v3" xmlns:wptx1="http://www.garmin.com/xmlschemas/WaypointExtension/v1" xmlns:gpxtpx="http://www.garmin.com/xmlschemas/TrackPointExtension/v1" creator="Dakota 20" version="1.1" xmlns:xsi="http://www.w3.org/2001/XMLSchema-instance" xsi:schemaLocation="http://www.topografix.com/GPX/1/1 http://www.topografix.com/GPX/1/1/gpx.xsd http://www.garmin.com/xmlschemas/GpxExtensions/v3 http://www8.garmin.com/xmlschemas/GpxExtensionsv3.xsd http://www.garmin.com/xmlschemas/WaypointExtension/v1 http://www8.garmin.com/xmlschemas/WaypointExtensionv1.xsd http://www.garmin.com/xmlschemas/TrackPointExtension/v1 http://www.garmin.com/xmlschemas/TrackPointExtensionv1.xsd"><metadata><link href="http://www.garmin.com"><text>Garmin International</text></link><time>2015-03-25T18:40:48Z</time></metadata><trk><name>Current Track: 25 MAR 2015 10:02</name><extensions><gpxx:TrackExtension><gpxx:DisplayColor>Cyan</gpxx:DisplayColor></gpxx:TrackExtension></extensions><trkseg><trkpt lat="51.9005935639" lon="-1.7612117808"><ele>140.97</ele><time>2015-03-25T10:02:58Z</time></trkpt><trkpt lat="51.9005950727" lon="-1.7612136248"><ele>141.93</ele><time>2015-03-25T10:03:22Z</time></trkpt><trkpt lat="51.9005918875" lon="-1.7612189054"><ele>141.93</ele><time>2015-03-25T10:03:48Z</time></trkpt><trkpt lat="51.9005881157" lon="-1.7612197436"><ele>142.89</ele><time>2015-03-25T10:04:12Z</time></trkpt><trkpt lat="51.9005905464" lon="-1.7612269521"><ele>142.41</ele><time>2015-03-25T10:04:26Z</time></trkpt><trkpt lat="51.9007243216" lon="-1.7613919079"><ele>142.41</ele><time>2015-03-25T10:04:42Z</time></trkpt><trkpt lat="51.9008537382" lon="-1.7616030481"><ele>142.41</ele><time>2015-03-25T10:04:57Z</time></trkpt><trkpt lat="51.9010274950" lon="-1.7615675926"><ele>142.41</ele><time>2015-03-25T10:05:15Z</time></trkpt><trkpt lat="51.9011980668" lon="-1.7614892218"><ele>141.93</ele><time>2015-03-25T10:05:33Z</time></trkpt><trkpt lat="51.9013470132" lon="-1.7614914849"><ele>141.45</ele><time>2015-03-25T10:05:51Z</time></trkpt><trkpt lat="51.9014399685" lon="-1.7615842726"><ele>142.41</ele><time>2015-03-25T10:06:08Z</time></trkpt><trkpt lat="51.9013982266" lon="-1.7618519906"><ele>141.45</ele><time>2015-03-25T10:06:27Z</time></trkpt><trkpt lat="51.9013251364" lon="-1.7621108238"><ele>141.45</ele><time>2015-03-25T10:06:43Z</time></trkpt><trkpt lat="51.9012755994" lon="-1.7623264063"><ele>141.45</ele><time>2015-03-25T10:06:58Z</time></trkpt><trkpt lat="51.9012056105" lon="-1.7625438329"><ele>141.93</ele><time>2015-03-25T10:07:15Z</time></trkpt><trkpt lat="51.9011938758" lon="-1.7628175858"><ele>141.93</ele><time>2015-03-25T10:07:34Z</time></trkpt><trkpt lat="51.9012680557" lon="-1.7630848009"><ele>141.45</ele><time>2015-03-25T10:07:53Z</time></trkpt><trkpt lat="51.9012955483" lon="-1.7631563824"><ele>141.45</ele><time>2015-03-25T10:07:59Z</time></trkpt><trkpt lat="51.9013693929" lon="-1.7634053249"><ele>141.45</ele><time>2015-03-25T10:08:16Z</time></trkpt><trkpt lat="51.9014301617" lon="-1.7635316402"><ele>141.45</ele><time>2015-03-25T10:08:30Z</time></trkpt><trkpt lat="51.9016381167" lon="-1.7636365816"><ele>140.97</ele><time>2015-03-25T10:08:48Z</time></trkpt><trkpt lat="51.9017512724" lon="-1.7635114398"><ele>140.97</ele><time>2015-03-25T10:09:04Z</time></trkpt><trkpt lat="51.9018510170" lon="-1.7633738089"><ele>140.97</ele><time>2015-03-25T10:09:19Z</time></trkpt><trkpt lat="51.9019339141" lon="-1.7634072527"><ele>141.93</ele><time>2015-03-25T10:09:34Z</time></trkpt><trkpt lat="51.9020577986" lon="-1.7635848653"><ele>141.93</ele><time>2015-03-25T10:09:50Z</time></trkpt><trkpt lat="51.9021755643" lon="-1.7637583707"><ele>142.41</ele><time>2015-03-25T10:10:09Z</time></trkpt><trkpt lat="51.9022516720" lon="-1.7639251705"><ele>142.41</ele><time>2015-03-25T10:10:26Z</time></trkpt><trkpt lat="51.9023135304" lon="-1.7640146893"><ele>142.41</ele><time>2015-03-25T10:10:45Z</time></trkpt><trkpt lat="51.9023156259" lon="-1.7640239932"><ele>142.41</ele><time>2015-03-25T10:10:54Z</time></trkpt><trkpt lat="51.9023541827" lon="-1.7641058844"><ele>142.41</ele><time>2015-03-25T10:11:00Z</time></trkpt><trkpt lat="51.9024858624" lon="-1.7643699143"><ele>142.41</ele><time>2015-03-25T10:11:16Z</time></trkpt><trkpt lat="51.9025690947" lon="-1.7645800486"><ele>141.93</ele><time>2015-03-25T10:11:27Z</time></trkpt><trkpt lat="51.9025899656" lon="-1.7646378838"><ele>141.93</ele><time>2015-03-25T10:11:30Z</time></trkpt><trkpt lat="51.9027286023" lon="-1.7648859881"><ele>142.41</ele><time>2015-03-25T10:11:48Z</time></trkpt><trkpt lat="51.9028593600" lon="-1.7651299015"><ele>142.41</ele><time>2015-03-25T10:12:06Z</time></trkpt><trkpt lat="51.9029523153" lon="-1.7652955279"><ele>142.89</ele><time>2015-03-25T10:12:21Z</time></trkpt><trkpt lat="51.9030710869" lon="-1.7654751521"><ele>142.89</ele><time>2015-03-25T10:12:38Z</time></trkpt><trkpt lat="51.9031742681" lon="-1.7656523455"><ele>142.41</ele><time>2015-03-25T10:12:53Z</time></trkpt><trkpt lat="51.9032699056" lon="-1.7658373341"><ele>142.89</ele><time>2015-03-25T10:13:10Z</time></trkpt><trkpt lat="51.9033383019" lon="-1.7659832630"><ele>142.89</ele><time>2015-03-25T10:13:23Z</time></trkpt><trkpt lat="51.9034502842" lon="-1.7662226502"><ele>142.89</ele><time>2015-03-25T10:13:39Z</time></trkpt><trkpt lat="51.9035443291" lon="-1.7663620412"><ele>142.89</ele><time>2015-03-25T10:13:52Z</time></trkpt><trkpt lat="51.9036227837" lon="-1.7665475328"><ele>142.89</ele><time>2015-03-25T10:14:06Z</time></trkpt><trkpt lat="51.9037097879" lon="-1.7667315993"><ele>143.85</ele><time>2015-03-25T10:14:22Z</time></trkpt><trkpt lat="51.9037474226" lon="-1.7668029293"><ele>142.89</ele><time>2015-03-25T10:14:29Z</time></trkpt><trkpt lat="51.9038615003" lon="-1.7670781910"><ele>142.89</ele><time>2015-03-25T10:14:47Z</time></trkpt><trkpt lat="51.9038672000" lon="-1.7671001516"><ele>143.37</ele><time>2015-03-25T10:14:48Z</time></trkpt><trkpt lat="51.9039821997" lon="-1.7673740722"><ele>142.41</ele><time>2015-03-25T10:15:09Z</time></trkpt><trkpt lat="51.9040008914" lon="-1.7674196698"><ele>142.41</ele><time>2015-03-25T10:15:12Z</time></trkpt><trkpt lat="51.9041329902" lon="-1.7675405368"><ele>142.89</ele><time>2015-03-25T10:15:29Z</time></trkpt><trkpt lat="51.9042241853" lon="-1.7676207516"><ele>142.89</ele><time>2015-03-25T10:15:46Z</time></trkpt><trkpt lat="51.9042301364" lon="-1.7676349171"><ele>143.37</ele><time>2015-03-25T10:16:06Z</time></trkpt><trkpt lat="51.9043348264" lon="-1.7676483281"><ele>143.85</ele><time>2015-03-25T10:16:17Z</time></trkpt><trkpt lat="51.9045400154" lon="-1.7677320633"><ele>143.85</ele><time>2015-03-25T10:16:35Z</time></trkpt><trkpt lat="51.9047281053" lon="-1.7678380106"><ele>143.85</ele><time>2015-03-25T10:16:53Z</time></trkpt><trkpt lat="51.9048597850" lon="-1.7678845301"><ele>144.34</ele><time>2015-03-25T10:17:09Z</time></trkpt><trkpt lat="51.9050134253" lon="-1.7679525074"><ele>144.34</ele><time>2015-03-25T10:17:24Z</time></trkpt><trkpt lat="51.9051710889" lon="-1.7680810858"><ele>144.34</ele><time>2015-03-25T10:17:39Z</time></trkpt><trkpt lat="51.9052867591" lon="-1.7681462970"><ele>144.82</ele><time>2015-03-25T10:17:57Z</time></trkpt><trkpt lat="51.9053662196" lon="-1.7682213988"><ele>144.82</ele><time>2015-03-25T10:18:13Z</time></trkpt><trkpt lat="51.9054146670" lon="-1.7683068104"><ele>144.82</ele><time>2015-03-25T10:18:22Z</time></trkpt><trkpt lat="51.9055762701" lon="-1.7685494665"><ele>144.82</ele><time>2015-03-25T10:18:43Z</time></trkpt><trkpt lat="51.9056009129" lon="-1.7686099838"><ele>144.82</ele><time>2015-03-25T10:18:47Z</time></trkpt><trkpt lat="51.9057180081" lon="-1.7688188609"><ele>144.34</ele><time>2015-03-25T10:19:05Z</time></trkpt><trkpt lat="51.9058042578" lon="-1.7689720821"><ele>144.82</ele><time>2015-03-25T10:19:20Z</time></trkpt><trkpt lat="51.9059323333" lon="-1.7691724934"><ele>144.34</ele><time>2015-03-25T10:19:36Z</time></trkpt><trkpt lat="51.9059480913" lon="-1.7691963818"><ele>144.82</ele><time>2015-03-25T10:19:38Z</time></trkpt><trkpt lat="51.9060408790" lon="-1.7693487648"><ele>144.82</ele><time>2015-03-25T10:19:52Z</time></trkpt><trkpt lat="51.9061200880" lon="-1.7695342563"><ele>144.82</ele><time>2015-03-25T10:20:07Z</time></trkpt><trkpt lat="51.9062251970" lon="-1.7697057500"><ele>145.78</ele><time>2015-03-25T10:20:24Z</time></trkpt><trkpt lat="51.9063287135" lon="-1.7698929179"><ele>145.30</ele><time>2015-03-25T10:20:40Z</time></trkpt><trkpt lat="51.9064484071" lon="-1.7700826004"><ele>145.30</ele><time>2015-03-25T10:20:57Z</time></trkpt><trkpt lat="51.9065578748" lon="-1.7702110950"><ele>146.74</ele><time>2015-03-25T10:21:11Z</time></trkpt><trkpt lat="51.9065831043" lon="-1.7702820897"><ele>146.74</ele><time>2015-03-25T10:21:18Z</time></trkpt><trkpt lat="51.9066129439" lon="-1.7703152820"><ele>146.74</ele><time>2015-03-25T10:21:22Z</time></trkpt><trkpt lat="51.9067022949" lon="-1.7704930622"><ele>148.66</ele><time>2015-03-25T10:21:37Z</time></trkpt><trkpt lat="51.9067789894" lon="-1.7706529051"><ele>148.66</ele><time>2015-03-25T10:21:49Z</time></trkpt><trkpt lat="51.9067954179" lon="-1.7707701679"><ele>149.62</ele><time>2015-03-25T10:21:56Z</time></trkpt><trkpt lat="51.9068578631" lon="-1.7709756922"><ele>149.62</ele><time>2015-03-25T10:22:11Z</time></trkpt><trkpt lat="51.9069342222" lon="-1.7711702362"><ele>150.58</ele><time>2015-03-25T10:22:28Z</time></trkpt><trkpt lat="51.9070130959" lon="-1.7713907640"><ele>151.54</ele><time>2015-03-25T10:22:46Z</time></trkpt><trkpt lat="51.9070313685" lon="-1.7714289855"><ele>151.54</ele><time>2015-03-25T10:23:07Z</time></trkpt><trkpt lat="51.9070437737" lon="-1.7714418098"><ele>152.03</ele><time>2015-03-25T10:23:25Z</time></trkpt><trkpt lat="51.9070877787" lon="-1.7715840507"><ele>151.54</ele><time>2015-03-25T10:23:40Z</time></trkpt><trkpt lat="51.9071044587" lon="-1.7716289777"><ele>152.03</ele><time>2015-03-25T10:23:44Z</time></trkpt><trkpt lat="51.9071653951" lon="-1.7719224282"><ele>151.06</ele><time>2015-03-25T10:24:00Z</time></trkpt><trkpt lat="51.9072737731" lon="-1.7722180579"><ele>150.10</ele><time>2015-03-25T10:24:17Z</time></trkpt><trkpt lat="51.9073197059" lon="-1.7724685930"><ele>148.18</ele><time>2015-03-25T10:24:34Z</time></trkpt><trkpt lat="51.9073829893" lon="-1.7727311980"><ele>146.74</ele><time>2015-03-25T10:24:51Z</time></trkpt><trkpt lat="51.9074539840" lon="-1.7728355527"><ele>144.34</ele><time>2015-03-25T10:25:02Z</time></trkpt><trkpt lat="51.9075134955" lon="-1.7729420029"><ele>143.85</ele><time>2015-03-25T10:25:18Z</time></trkpt><trkpt lat="51.9075347017" lon="-1.7729383148"><ele>144.34</ele><time>2015-03-25T10:25:44Z</time></trkpt><trkpt lat="51.9075197820" lon="-1.7729483731"><ele>143.85</ele><time>2015-03-25T10:26:07Z</time></trkpt><trkpt lat="51.9075166807" lon="-1.7730299290"><ele>143.85</ele><time>2015-03-25T10:26:26Z</time></trkpt><trkpt lat="51.9074922893" lon="-1.7732372973"><ele>143.37</ele><time>2015-03-25T10:26:40Z</time></trkpt><trkpt lat="51.9073910359" lon="-1.7735133972"><ele>144.34</ele><time>2015-03-25T10:26:56Z</time></trkpt><trkpt lat="51.9072753657" lon="-1.7736602481"><ele>145.78</ele><time>2015-03-25T10:27:07Z</time></trkpt><trkpt lat="51.9072343782" lon="-1.7737440672"><ele>146.26</ele><time>2015-03-25T10:27:13Z</time></trkpt><trkpt lat="51.9072164409" lon="-1.7739854660"><ele>147.22</ele><time>2015-03-25T10:27:27Z</time></trkpt><trkpt lat="51.9071820751" lon="-1.7740174849"><ele>146.74</ele><time>2015-03-25T10:27:31Z</time></trkpt><trkpt lat="51.9071363937" lon="-1.7740285490"><ele>147.70</ele><time>2015-03-25T10:27:34Z</time></trkpt><trkpt lat="51.9070041273" lon="-1.7741334066"><ele>147.70</ele><time>2015-03-25T10:27:47Z</time></trkpt><trkpt lat="51.9069051370" lon="-1.7743572034"><ele>148.18</ele><time>2015-03-25T10:28:04Z</time></trkpt><trkpt lat="51.9068942405" lon="-1.7745945789"><ele>148.66</ele><time>2015-03-25T10:28:18Z</time></trkpt><trkpt lat="51.9069099147" lon="-1.7746886238"><ele>148.66</ele><time>2015-03-25T10:28:23Z</time></trkpt><trkpt lat="51.9069688395" lon="-1.7749348842"><ele>148.66</ele><time>2015-03-25T10:28:39Z</time></trkpt><trkpt lat="51.9069399219" lon="-1.7751837429"><ele>149.62</ele><time>2015-03-25T10:28:54Z</time></trkpt><trkpt lat="51.9068794884" lon="-1.7754133232"><ele>149.62</ele><time>2015-03-25T10:29:08Z</time></trkpt><trkpt lat="51.9068403449" lon="-1.7755163368"><ele>149.62</ele><time>2015-03-25T10:29:15Z</time></trkpt><trkpt lat="51.9068125170" lon="-1.7756294087"><ele>150.58</ele><time>2015-03-25T10:29:23Z</time></trkpt><trkpt lat="51.9067830127" lon="-1.7756860703"><ele>150.10</ele><time>2015-03-25T10:29:28Z</time></trkpt><trkpt lat="51.9067347329" lon="-1.7758742440"><ele>151.06</ele><time>2015-03-25T10:29:42Z</time></trkpt><trkpt lat="51.9067327213" lon="-1.7758867331"><ele>151.06</ele><time>2015-03-25T10:29:43Z</time></trkpt><trkpt lat="51.9067246746" lon="-1.7759335879"><ele>151.54</ele><time>2015-03-25T10:29:46Z</time></trkpt><trkpt lat="51.9066728745" lon="-1.7760948557"><ele>151.54</ele><time>2015-03-25T10:29:57Z</time></trkpt><trkpt lat="51.9066243432" lon="-1.7762892321"><ele>152.03</ele><time>2015-03-25T10:30:10Z</time></trkpt><trkpt lat="51.9065396022" lon="-1.7765026353"><ele>152.99</ele><time>2015-03-25T10:30:24Z</time></trkpt><trkpt lat="51.9064789172" lon="-1.7766749673"><ele>152.99</ele><time>2015-03-25T10:30:36Z</time></trkpt><trkpt lat="51.9064392708" lon="-1.7768170405"><ele>152.99</ele><time>2015-03-25T10:30:46Z</time></trkpt><trkpt lat="51.9063975289" lon="-1.7769329622"><ele>153.95</ele><time>2015-03-25T10:30:54Z</time></trkpt><trkpt lat="51.9063704554" lon="-1.7770061363"><ele>154.43</ele><time>2015-03-25T10:31:00Z</time></trkpt><trkpt lat="51.9063833635" lon="-1.7771092337"><ele>155.39</ele><time>2015-03-25T10:31:14Z</time></trkpt><trkpt lat="51.9064127840" lon="-1.7772162706"><ele>154.91</ele><time>2015-03-25T10:31:28Z</time></trkpt><trkpt lat="51.9064480718" lon="-1.7772188690"><ele>156.35</ele><time>2015-03-25T10:31:44Z</time></trkpt><trkpt lat="51.9064805936" lon="-1.7772804759"><ele>156.35</ele><time>2015-03-25T10:32:02Z</time></trkpt><trkpt lat="51.9065368362" lon="-1.7773161829"><ele>156.83</ele><time>2015-03-25T10:32:11Z</time></trkpt><trkpt lat="51.9066235051" lon="-1.7775082961"><ele>158.75</ele><time>2015-03-25T10:32:24Z</time></trkpt><trkpt lat="51.9066622294" lon="-1.7775587551"><ele>158.75</ele><time>2015-03-25T10:32:30Z</time></trkpt><trkpt lat="51.9067363255" lon="-1.7777004093"><ele>160.20</ele><time>2015-03-25T10:32:42Z</time></trkpt><trkpt lat="51.9067711942" lon="-1.7777442466"><ele>160.68</ele><time>2015-03-25T10:32:48Z</time></trkpt><trkpt lat="51.9068746269" lon="-1.7777860723"><ele>161.64</ele><time>2015-03-25T10:33:02Z</time></trkpt><trkpt lat="51.9069746230" lon="-1.7778567318"><ele>161.16</ele><time>2015-03-25T10:33:14Z</time></trkpt><trkpt lat="51.9070953224" lon="-1.7779605836"><ele>160.68</ele><time>2015-03-25T10:33:29Z</time></trkpt><trkpt lat="51.9071640540" lon="-1.7779999785"><ele>160.20</ele><time>2015-03-25T10:33:45Z</time></trkpt><trkpt lat="51.9071798958" lon="-1.7779828794"><ele>159.72</ele><time>2015-03-25T10:34:15Z</time></trkpt><trkpt lat="51.9071912114" lon="-1.7779972125"><ele>159.24</ele><time>2015-03-25T10:34:43Z</time></trkpt><trkpt lat="51.9072014373" lon="-1.7780118808"><ele>159.72</ele><time>2015-03-25T10:35:02Z</time></trkpt><trkpt lat="51.9072278403" lon="-1.7780350987"><ele>157.79</ele><time>2015-03-25T10:35:13Z</time></trkpt><trkpt lat="51.9072626252" lon="-1.7780464981"><ele>155.87</ele><time>2015-03-25T10:35:31Z</time></trkpt><trkpt lat="51.9072934706" lon="-1.7780789360"><ele>153.47</ele><time>2015-03-25T10:35:51Z</time></trkpt><trkpt lat="51.9073049538" lon="-1.7781006452"><ele>152.03</ele><time>2015-03-25T10:36:13Z</time></trkpt><trkpt lat="51.9073170237" lon="-1.7781236116"><ele>150.10</ele><time>2015-03-25T10:36:33Z</time></trkpt><trkpt lat="51.9073270820" lon="-1.7781367712"><ele>148.18</ele><time>2015-03-25T10:36:53Z</time></trkpt><trkpt lat="51.9073607773" lon="-1.7781612463"><ele>147.22</ele><time>2015-03-25T10:37:13Z</time></trkpt><trkpt lat="51.9074726757" lon="-1.7782264575"><ele>144.82</ele><time>2015-03-25T10:37:28Z</time></trkpt><trkpt lat="51.9075036049" lon="-1.7782599013"><ele>143.37</ele><time>2015-03-25T10:37:51Z</time></trkpt><trkpt lat="51.9075420778" lon="-1.7782852147"><ele>143.37</ele><time>2015-03-25T10:38:09Z</time></trkpt><trkpt lat="51.9075777847" lon="-1.7783639207"><ele>142.89</ele><time>2015-03-25T10:38:28Z</time></trkpt><trkpt lat="51.9076465163" lon="-1.7784300540"><ele>142.89</ele><time>2015-03-25T10:38:45Z</time></trkpt><trkpt lat="51.9077368733" lon="-1.7784948461"><ele>142.89</ele><time>2015-03-25T10:38:58Z</time></trkpt><trkpt lat="51.9077307545" lon="-1.7785074189"><ele>143.37</ele><time>2015-03-25T10:39:00Z</time></trkpt><trkpt lat="51.9078104664" lon="-1.7786233407"><ele>142.89</ele><time>2015-03-25T10:39:08Z</time></trkpt><trkpt lat="51.9078849815" lon="-1.7786554433"><ele>142.41</ele><time>2015-03-25T10:39:15Z</time></trkpt><trkpt lat="51.9079271425" lon="-1.7786701117"><ele>142.89</ele><time>2015-03-25T10:39:18Z</time></trkpt><trkpt lat="51.9081096165" lon="-1.7787503265"><ele>142.89</ele><time>2015-03-25T10:39:32Z</time></trkpt><trkpt lat="51.9081919268" lon="-1.7787596304"><ele>143.37</ele><time>2015-03-25T10:39:39Z</time></trkpt><trkpt lat="51.9082801882" lon="-1.7787212413"><ele>143.37</ele><time>2015-03-25T10:39:53Z</time></trkpt><trkpt lat="51.9084595609" lon="-1.7787498236"><ele>143.85</ele><time>2015-03-25T10:40:08Z</time></trkpt><trkpt lat="51.9085088465" lon="-1.7787531763"><ele>144.34</ele><time>2015-03-25T10:40:13Z</time></trkpt><trkpt lat="51.9085927494" lon="-1.7787593789"><ele>144.34</ele><time>2015-03-25T10:40:19Z</time></trkpt><trkpt lat="51.9087601360" lon="-1.7787622288"><ele>145.30</ele><time>2015-03-25T10:40:34Z</time></trkpt><trkpt lat="51.9089025445" lon="-1.7787526734"><ele>146.26</ele><time>2015-03-25T10:40:52Z</time></trkpt><trkpt lat="51.9090666622" lon="-1.7788089160"><ele>146.74</ele><time>2015-03-25T10:41:11Z</time></trkpt><trkpt lat="51.9090893771" lon="-1.7788202316"><ele>147.22</ele><time>2015-03-25T10:41:15Z</time></trkpt><trkpt lat="51.9092379883" lon="-1.7788879573"><ele>147.70</ele><time>2015-03-25T10:41:30Z</time></trkpt><trkpt lat="51.9093386550" lon="-1.7789030448"><ele>149.62</ele><time>2015-03-25T10:41:45Z</time></trkpt><trkpt lat="51.9094894454" lon="-1.7788737919"><ele>150.58</ele><time>2015-03-25T10:42:00Z</time></trkpt><trkpt lat="51.9095984101" lon="-1.7788288649"><ele>152.51</ele><time>2015-03-25T10:42:16Z</time></trkpt><trkpt lat="51.9096822292" lon="-1.7788385041"><ele>153.95</ele><time>2015-03-25T10:42:28Z</time></trkpt><trkpt lat="51.9098137412" lon="-1.7788182199"><ele>154.43</ele><time>2015-03-25T10:42:42Z</time></trkpt><trkpt lat="51.9099456724" lon="-1.7788266856"><ele>154.43</ele><time>2015-03-25T10:42:58Z</time></trkpt><trkpt lat="51.9101385400" lon="-1.7788235005"><ele>153.95</ele><time>2015-03-25T10:43:17Z</time></trkpt><trkpt lat="51.9102431461" lon="-1.7788012885"><ele>154.43</ele><time>2015-03-25T10:43:30Z</time></trkpt><trkpt lat="51.9103618339" lon="-1.7787709460"><ele>154.91</ele><time>2015-03-25T10:43:44Z</time></trkpt><trkpt lat="51.9104387797" lon="-1.7787377536"><ele>155.39</ele><time>2015-03-25T10:43:55Z</time></trkpt><trkpt lat="51.9104528613" lon="-1.7787440401"><ele>155.87</ele><time>2015-03-25T10:44:00Z</time></trkpt><trkpt lat="51.9104783423" lon="-1.7787439562"><ele>155.87</ele><time>2015-03-25T10:44:06Z</time></trkpt><trkpt lat="51.9105894025" lon="-1.7787278630"><ele>155.39</ele><time>2015-03-25T10:44:19Z</time></trkpt><trkpt lat="51.9106569607" lon="-1.7787417769"><ele>156.35</ele><time>2015-03-25T10:44:25Z</time></trkpt><trkpt lat="51.9107919931" lon="-1.7787110154"><ele>155.39</ele><time>2015-03-25T10:44:39Z</time></trkpt><trkpt lat="51.9109100942" lon="-1.7786923237"><ele>154.91</ele><time>2015-03-25T10:44:52Z</time></trkpt><trkpt lat="51.9110229146" lon="-1.7786784098"><ele>154.43</ele><time>2015-03-25T10:45:04Z</time></trkpt><trkpt lat="51.9110975135" lon="-1.7786562815"><ele>154.43</ele><time>2015-03-25T10:45:16Z</time></trkpt><trkpt lat="51.9111320470" lon="-1.7786862049"><ele>154.43</ele><time>2015-03-25T10:45:30Z</time></trkpt><trkpt lat="51.9111796562" lon="-1.7786841933"><ele>154.43</ele><time>2015-03-25T10:45:44Z</time></trkpt><trkpt lat="51.9112800714" lon="-1.7788058985"><ele>154.43</ele><time>2015-03-25T10:45:58Z</time></trkpt><trkpt lat="51.9113710988" lon="-1.7789527494"><ele>153.47</ele><time>2015-03-25T10:46:13Z</time></trkpt><trkpt lat="51.9114477932" lon="-1.7791046295"><ele>152.99</ele><time>2015-03-25T10:46:27Z</time></trkpt><trkpt lat="51.9116032775" lon="-1.7792756204"><ele>151.54</ele><time>2015-03-25T10:46:47Z</time></trkpt><trkpt lat="51.9116740208" lon="-1.7794030253"><ele>150.10</ele><time>2015-03-25T10:47:05Z</time></trkpt><trkpt lat="51.9117315207" lon="-1.7795271613"><ele>148.66</ele><time>2015-03-25T10:47:24Z</time></trkpt><trkpt lat="51.9117510505" lon="-1.7795697413"><ele>147.22</ele><time>2015-03-25T10:47:46Z</time></trkpt><trkpt lat="51.9118076283" lon="-1.7796479445"><ele>146.74</ele><time>2015-03-25T10:48:03Z</time></trkpt><trkpt lat="51.9118873402" lon="-1.7797445040"><ele>145.78</ele><time>2015-03-25T10:48:18Z</time></trkpt><trkpt lat="51.9121291582" lon="-1.7799661215"><ele>144.82</ele><time>2015-03-25T10:48:34Z</time></trkpt><trkpt lat="51.9123227801" lon="-1.7800683808"><ele>144.34</ele><time>2015-03-25T10:48:51Z</time></trkpt><trkpt lat="51.9124969561" lon="-1.7801849730"><ele>144.34</ele><time>2015-03-25T10:49:09Z</time></trkpt><trkpt lat="51.9126008078" lon="-1.7802221887"><ele>143.85</ele><time>2015-03-25T10:49:28Z</time></trkpt><trkpt lat="51.9127230160" lon="-1.7802832089"><ele>144.34</ele><time>2015-03-25T10:49:45Z</time></trkpt><trkpt lat="51.9128044043" lon="-1.7803081032"><ele>144.34</ele><time>2015-03-25T10:50:06Z</time></trkpt><trkpt lat="51.9128457271" lon="-1.7803212628"><ele>143.85</ele><time>2015-03-25T10:50:23Z</time></trkpt><trkpt lat="51.9129413646" lon="-1.7803753261"><ele>144.34</ele><time>2015-03-25T10:50:41Z</time></trkpt><trkpt lat="51.9130583759" lon="-1.7804358434"><ele>144.82</ele><time>2015-03-25T10:50:57Z</time></trkpt><trkpt lat="51.9131742977" lon="-1.7804710474"><ele>145.78</ele><time>2015-03-25T10:51:14Z</time></trkpt><trkpt lat="51.9133233279" lon="-1.7804904934"><ele>146.74</ele><time>2015-03-25T10:51:30Z</time></trkpt><trkpt lat="51.9133591186" lon="-1.7805100232"><ele>147.22</ele><time>2015-03-25T10:51:51Z</time></trkpt><trkpt lat="51.9134193845" lon="-1.7805088498"><ele>147.70</ele><time>2015-03-25T10:52:05Z</time></trkpt><trkpt lat="51.9136202987" lon="-1.7805738933"><ele>148.66</ele><time>2015-03-25T10:52:22Z</time></trkpt><trkpt lat="51.9138088915" lon="-1.7805591412"><ele>148.66</ele><time>2015-03-25T10:52:39Z</time></trkpt><trkpt lat="51.9139278308" lon="-1.7805256136"><ele>148.66</ele><time>2015-03-25T10:52:56Z</time></trkpt><trkpt lat="51.9142980594" lon="-1.7805243563"><ele>148.66</ele><time>2015-03-25T10:53:11Z</time></trkpt><trkpt lat="51.9144961238" lon="-1.7804464884"><ele>148.66</ele><time>2015-03-25T10:53:31Z</time></trkpt><trkpt lat="51.9145810325" lon="-1.7803965323"><ele>149.14</ele><time>2015-03-25T10:53:44Z</time></trkpt><trkpt lat="51.9147961121" lon="-1.7802368570"><ele>149.14</ele><time>2015-03-25T10:54:02Z</time></trkpt><trkpt lat="51.9149762392" lon="-1.7800599989"><ele>148.18</ele><time>2015-03-25T10:54:19Z</time></trkpt><trkpt lat="51.9150863774" lon="-1.7798683047"><ele>148.18</ele><time>2015-03-25T10:54:34Z</time></trkpt><trkpt lat="51.9151499122" lon="-1.7798043508"><ele>146.74</ele><time>2015-03-25T10:54:42Z</time></trkpt><trkpt lat="51.9152434543" lon="-1.7796979006"><ele>145.78</ele><time>2015-03-25T10:54:51Z</time></trkpt><trkpt lat="51.9153529219" lon="-1.7795603536"><ele>144.82</ele><time>2015-03-25T10:55:06Z</time></trkpt><trkpt lat="51.9153941609" lon="-1.7793471180"><ele>144.82</ele><time>2015-03-25T10:55:19Z</time></trkpt><trkpt lat="51.9153952505" lon="-1.7793652229"><ele>145.30</ele><time>2015-03-25T10:55:29Z</time></trkpt><trkpt lat="51.9154022075" lon="-1.7793756165"><ele>144.82</ele><time>2015-03-25T10:55:47Z</time></trkpt><trkpt lat="51.9154006988" lon="-1.7793585174"><ele>144.82</ele><time>2015-03-25T10:56:04Z</time></trkpt><trkpt lat="51.9154064823" lon="-1.7793753650"><ele>144.34</ele><time>2015-03-25T10:56:21Z</time></trkpt><trkpt lat="51.9154006988" lon="-1.7793730181"><ele>144.82</ele><time>2015-03-25T10:56:41Z</time></trkpt><trkpt lat="51.9154212344" lon="-1.7794195376"><ele>144.82</ele><time>2015-03-25T10:56:59Z</time></trkpt><trkpt lat="51.9153934903" lon="-1.7794098146"><ele>144.82</ele><time>2015-03-25T10:57:16Z</time></trkpt><trkpt lat="51.9153850246" lon="-1.7793970741"><ele>144.82</ele><time>2015-03-25T10:57:39Z</time></trkpt><trkpt lat="51.9153878745" lon="-1.7793837469"><ele>144.82</ele><time>2015-03-25T10:58:02Z</time></trkpt><trkpt lat="51.9153872877" lon="-1.7793885246"><ele>145.30</ele><time>2015-03-25T10:58:26Z</time></trkpt><trkpt lat="51.9153838512" lon="-1.7793746106"><ele>144.82</ele><time>2015-03-25T10:58:47Z</time></trkpt><trkpt lat="51.9153812528" lon="-1.7793938052"><ele>144.82</ele><time>2015-03-25T10:59:14Z</time></trkpt><trkpt lat="51.9153870363" lon="-1.7793905362"><ele>144.82</ele><time>2015-03-25T10:59:42Z</time></trkpt><trkpt lat="51.9154003635" lon="-1.7793866806"><ele>145.30</ele><time>2015-03-25T11:00:08Z</time></trkpt><trkpt lat="51.9153835997" lon="-1.7793750297"><ele>145.30</ele><time>2015-03-25T11:00:29Z</time></trkpt><trkpt lat="51.9153836835" lon="-1.7793677375"><ele>145.30</ele><time>2015-03-25T11:00:50Z</time></trkpt><trkpt lat="51.9153813366" lon="-1.7793675698"><ele>145.30</ele><time>2015-03-25T11:01:03Z</time></trkpt><trkpt lat="51.9153956696" lon="-1.7793907877"><ele>145.78</ele><time>2015-03-25T11:01:23Z</time></trkpt><trkpt lat="51.9153963402" lon="-1.7794163525"><ele>145.30</ele><time>2015-03-25T11:01:54Z</time></trkpt><trkpt lat="51.9153976813" lon="-1.7794321943"><ele>145.30</ele><time>2015-03-25T11:02:21Z</time></trkpt><trkpt lat="51.9153991900" lon="-1.7794440966"><ele>145.30</ele><time>2015-03-25T11:02:51Z</time></trkpt><trkpt lat="51.9154011179" lon="-1.7794287577"><ele>145.30</ele><time>2015-03-25T11:03:17Z</time></trkpt><trkpt lat="51.9153991062" lon="-1.7794297636"><ele>144.82</ele><time>2015-03-25T11:03:41Z</time></trkpt><trkpt lat="51.9153920654" lon="-1.7794291768"><ele>145.30</ele><time>2015-03-25T11:04:09Z</time></trkpt><trkpt lat="51.9153892994" lon="-1.7794374749"><ele>145.30</ele><time>2015-03-25T11:04:38Z</time></trkpt><trkpt lat="51.9153877907" lon="-1.7794186994"><ele>145.30</ele><time>2015-03-25T11:04:59Z</time></trkpt><trkpt lat="51.9153898861" lon="-1.7794049531"><ele>145.30</ele><time>2015-03-25T11:05:24Z</time></trkpt><trkpt lat="51.9153845217" lon="-1.7794098146"><ele>145.30</ele><time>2015-03-25T11:05:51Z</time></trkpt><trkpt lat="51.9153888803" lon="-1.7794127483"><ele>145.30</ele><time>2015-03-25T11:06:11Z</time></trkpt><trkpt lat="51.9153861981" lon="-1.7794021871"><ele>145.30</ele><time>2015-03-25T11:06:26Z</time></trkpt><trkpt lat="51.9153851923" lon="-1.7794000078"><ele>145.30</ele><time>2015-03-25T11:06:40Z</time></trkpt><trkpt lat="51.9153873716" lon="-1.7793974094"><ele>144.82</ele><time>2015-03-25T11:06:56Z</time></trkpt><trkpt lat="51.9153884612" lon="-1.7793959007"><ele>145.30</ele><time>2015-03-25T11:07:25Z</time></trkpt><trkpt lat="51.9153910596" lon="-1.7793980800"><ele>145.30</ele><time>2015-03-25T11:07:55Z</time></trkpt><trkpt lat="51.9153808337" lon="-1.7794035282"><ele>145.30</ele><time>2015-03-25T11:08:15Z</time></trkpt><trkpt lat="51.9153716974" lon="-1.7794134188"><ele>144.82</ele><time>2015-03-25T11:08:39Z</time></trkpt><trkpt lat="51.9153716974" lon="-1.7794180289"><ele>144.82</ele><time>2015-03-25T11:08:54Z</time></trkpt><trkpt lat="51.9153965916" lon="-1.7794182803"><ele>144.82</ele><time>2015-03-25T11:09:07Z</time></trkpt><trkpt lat="51.9154507387" lon="-1.7794273328"><ele>145.30</ele><time>2015-03-25T11:09:20Z</time></trkpt><trkpt lat="51.9156171195" lon="-1.7794907000"><ele>144.82</ele><time>2015-03-25T11:09:31Z</time></trkpt><trkpt lat="51.9157954864" lon="-1.7796710785"><ele>144.82</ele><time>2015-03-25T11:09:47Z</time></trkpt><trkpt lat="51.9159074686" lon="-1.7797912750"><ele>144.82</ele><time>2015-03-25T11:10:01Z</time></trkpt><trkpt lat="51.9159720931" lon="-1.7798881698"><ele>145.30</ele><time>2015-03-25T11:10:10Z</time></trkpt><trkpt lat="51.9160173554" lon="-1.7800151557"><ele>145.30</ele><time>2015-03-25T11:10:22Z</time></trkpt><trkpt lat="51.9160647970" lon="-1.7800823785"><ele>145.30</ele><time>2015-03-25T11:10:38Z</time></trkpt><trkpt lat="51.9160852488" lon="-1.7800947838"><ele>145.30</ele><time>2015-03-25T11:10:55Z</time></trkpt><trkpt lat="51.9161329418" lon="-1.7801057640"><ele>145.78</ele><time>2015-03-25T11:11:09Z</time></trkpt><trkpt lat="51.9161456823" lon="-1.7801216897"><ele>145.30</ele><time>2015-03-25T11:11:35Z</time></trkpt><trkpt lat="51.9161601830" lon="-1.7801813688"><ele>145.30</ele><time>2015-03-25T11:11:50Z</time></trkpt><trkpt lat="51.9161541481" lon="-1.7801479250"><ele>145.30</ele><time>2015-03-25T11:11:55Z</time></trkpt><trkpt lat="51.9161890168" lon="-1.7800455820"><ele>145.78</ele><time>2015-03-25T11:12:03Z</time></trkpt><trkpt lat="51.9162246399" lon="-1.7799211945"><ele>145.30</ele><time>2015-03-25T11:12:14Z</time></trkpt><trkpt lat="51.9162732549" lon="-1.7798259761"><ele>145.78</ele><time>2015-03-25T11:12:25Z</time></trkpt><trkpt lat="51.9162836485" lon="-1.7797631118"><ele>145.30</ele><time>2015-03-25T11:12:29Z</time></trkpt><trkpt lat="51.9163392205" lon="-1.7795831524"><ele>145.78</ele><time>2015-03-25T11:12:42Z</time></trkpt><trkpt lat="51.9164139032" lon="-1.7794914544"><ele>146.74</ele><time>2015-03-25T11:12:55Z</time></trkpt><trkpt lat="51.9165106304" lon="-1.7793754488"><ele>147.70</ele><time>2015-03-25T11:13:09Z</time></trkpt><trkpt lat="51.9166075252" lon="-1.7792006023"><ele>149.62</ele><time>2015-03-25T11:13:25Z</time></trkpt><trkpt lat="51.9166983012" lon="-1.7790577747"><ele>150.10</ele><time>2015-03-25T11:13:41Z</time></trkpt><trkpt lat="51.9167570584" lon="-1.7789856065"><ele>152.51</ele><time>2015-03-25T11:13:55Z</time></trkpt><trkpt lat="51.9168515224" lon="-1.7787858658"><ele>153.47</ele><time>2015-03-25T11:14:10Z</time></trkpt><trkpt lat="51.9169415440" lon="-1.7786296271"><ele>155.39</ele><time>2015-03-25T11:14:25Z</time></trkpt><trkpt lat="51.9170453958" lon="-1.7783927545"><ele>157.31</ele><time>2015-03-25T11:14:40Z</time></trkpt><trkpt lat="51.9171043206" lon="-1.7782286368"><ele>159.24</ele><time>2015-03-25T11:14:53Z</time></trkpt><trkpt lat="51.9171179831" lon="-1.7781901639"><ele>159.24</ele><time>2015-03-25T11:14:56Z</time></trkpt><trkpt lat="51.9171779137" lon="-1.7780244537"><ele>160.68</ele><time>2015-03-25T11:15:10Z</time></trkpt><trkpt lat="51.9172570389" lon="-1.7778879125"><ele>162.12</ele><time>2015-03-25T11:15:25Z</time></trkpt><trkpt lat="51.9173080847" lon="-1.7777997348"><ele>163.56</ele><time>2015-03-25T11:15:37Z</time></trkpt><trkpt lat="51.9174201507" lon="-1.7776576616"><ele>165.00</ele><time>2015-03-25T11:15:53Z</time></trkpt><trkpt lat="51.9175061490" lon="-1.7774378881"><ele>166.45</ele><time>2015-03-25T11:16:07Z</time></trkpt><trkpt lat="51.9175737072" lon="-1.7773324437"><ele>167.41</ele><time>2015-03-25T11:16:17Z</time></trkpt><trkpt lat="51.9176604599" lon="-1.7771510594"><ele>168.85</ele><time>2015-03-25T11:16:32Z</time></trkpt><trkpt lat="51.9177511521" lon="-1.7769837566"><ele>169.81</ele><time>2015-03-25T11:16:46Z</time></trkpt><trkpt lat="51.9177743699" lon="-1.7769545037"><ele>169.81</ele><time>2015-03-25T11:16:55Z</time></trkpt><trkpt lat="51.9177901279" lon="-1.7769312020"><ele>170.29</ele><time>2015-03-25T11:16:57Z</time></trkpt><trkpt lat="51.9178747851" lon="-1.7767678387"><ele>171.73</ele><time>2015-03-25T11:17:11Z</time></trkpt><trkpt lat="51.9179394934" lon="-1.7766369134"><ele>172.21</ele><time>2015-03-25T11:17:24Z</time></trkpt><trkpt lat="51.9180231448" lon="-1.7765006237"><ele>173.17</ele><time>2015-03-25T11:17:37Z</time></trkpt><trkpt lat="51.9180968218" lon="-1.7763624899"><ele>173.66</ele><time>2015-03-25T11:17:47Z</time></trkpt><trkpt lat="51.9182055350" lon="-1.7761823628"><ele>174.62</ele><time>2015-03-25T11:18:02Z</time></trkpt><trkpt lat="51.9182491209" lon="-1.7760697939"><ele>175.58</ele><time>2015-03-25T11:18:15Z</time></trkpt><trkpt lat="51.9182611071" lon="-1.7760105338"><ele>176.06</ele><time>2015-03-25T11:18:36Z</time></trkpt><trkpt lat="51.9183497038" lon="-1.7758402973"><ele>177.02</ele><time>2015-03-25T11:18:47Z</time></trkpt><trkpt lat="51.9184069522" lon="-1.7756719887"><ele>177.50</ele><time>2015-03-25T11:18:59Z</time></trkpt><trkpt lat="51.9184999075" lon="-1.7755019199"><ele>178.94</ele><time>2015-03-25T11:19:16Z</time></trkpt><trkpt lat="51.9185665436" lon="-1.7753642052"><ele>180.38</ele><time>2015-03-25T11:19:31Z</time></trkpt><trkpt lat="51.9186413102" lon="-1.7751974054"><ele>181.35</ele><time>2015-03-25T11:19:45Z</time></trkpt><trkpt lat="51.9186565652" lon="-1.7751772888"><ele>181.83</ele><time>2015-03-25T11:19:46Z</time></trkpt><trkpt lat="51.9187655300" lon="-1.7749534082"><ele>182.79</ele><time>2015-03-25T11:19:59Z</time></trkpt><trkpt lat="51.9188294001" lon="-1.7747822497"><ele>184.23</ele><time>2015-03-25T11:20:13Z</time></trkpt><trkpt lat="51.9188784342" lon="-1.7746928986"><ele>185.19</ele><time>2015-03-25T11:20:21Z</time></trkpt><trkpt lat="51.9189578947" lon="-1.7745157890"><ele>186.63</ele><time>2015-03-25T11:20:36Z</time></trkpt><trkpt lat="51.9190544542" lon="-1.7743276991"><ele>188.56</ele><time>2015-03-25T11:20:53Z</time></trkpt><trkpt lat="51.9190828688" lon="-1.7742528487"><ele>190.00</ele><time>2015-03-25T11:21:07Z</time></trkpt><trkpt lat="51.9191521034" lon="-1.7740646750"><ele>191.92</ele><time>2015-03-25T11:21:21Z</time></trkpt><trkpt lat="51.9191921689" lon="-1.7739580572"><ele>193.36</ele><time>2015-03-25T11:21:34Z</time></trkpt><trkpt lat="51.9192273729" lon="-1.7738723941"><ele>194.32</ele><time>2015-03-25T11:21:50Z</time></trkpt><trkpt lat="51.9192694500" lon="-1.7737495992"><ele>196.25</ele><time>2015-03-25T11:22:02Z</time></trkpt><trkpt lat="51.9193059113" lon="-1.7736270558"><ele>197.69</ele><time>2015-03-25T11:22:18Z</time></trkpt><trkpt lat="51.9193689432" lon="-1.7734514549"><ele>199.13</ele><time>2015-03-25T11:22:32Z</time></trkpt><trkpt lat="51.9194406923" lon="-1.7732317653"><ele>200.09</ele><time>2015-03-25T11:22:45Z</time></trkpt><trkpt lat="51.9194517564" lon="-1.7730522249"><ele>201.53</ele><time>2015-03-25T11:22:59Z</time></trkpt><trkpt lat="51.9194582105" lon="-1.7729521450"><ele>202.01</ele><time>2015-03-25T11:23:15Z</time></trkpt><trkpt lat="51.9194594678" lon="-1.7728280928"><ele>202.49</ele><time>2015-03-25T11:23:28Z</time></trkpt><trkpt lat="51.9194712862" lon="-1.7726363149"><ele>202.98</ele><time>2015-03-25T11:23:42Z</time></trkpt><trkpt lat="51.9194805063" lon="-1.7724508233"><ele>203.94</ele><time>2015-03-25T11:23:56Z</time></trkpt><trkpt lat="51.9195104297" lon="-1.7721668445"><ele>203.94</ele><time>2015-03-25T11:24:10Z</time></trkpt><trkpt lat="51.9195530098" lon="-1.7720000446"><ele>203.94</ele><time>2015-03-25T11:24:24Z</time></trkpt><trkpt lat="51.9196068216" lon="-1.7718449794"><ele>203.94</ele><time>2015-03-25T11:24:36Z</time></trkpt><trkpt lat="51.9197232462" lon="-1.7717298120"><ele>204.42</ele><time>2015-03-25T11:24:49Z</time></trkpt><trkpt lat="51.9197834283" lon="-1.7716657743"><ele>203.94</ele><time>2015-03-25T11:24:59Z</time></trkpt><trkpt lat="51.9198588654" lon="-1.7715335917"><ele>203.94</ele><time>2015-03-25T11:25:13Z</time></trkpt><trkpt lat="51.9198985957" lon="-1.7713427357"><ele>203.94</ele><time>2015-03-25T11:25:27Z</time></trkpt><trkpt lat="51.9199299440" lon="-1.7711788695"><ele>204.42</ele><time>2015-03-25T11:25:38Z</time></trkpt><trkpt lat="51.9199988432" lon="-1.7708091438"><ele>203.94</ele><time>2015-03-25T11:25:51Z</time></trkpt><trkpt lat="51.9200018607" lon="-1.7707887758"><ele>203.94</ele><time>2015-03-25T11:25:52Z</time></trkpt><trkpt lat="51.9200476259" lon="-1.7705579381"><ele>204.90</ele><time>2015-03-25T11:26:04Z</time></trkpt><trkpt lat="51.9200550020" lon="-1.7705354746"><ele>201.53</ele><time>2015-03-25T11:26:06Z</time></trkpt><trkpt lat="51.9200739451" lon="-1.7704093270"><ele>203.94</ele><time>2015-03-25T11:26:18Z</time></trkpt><trkpt lat="51.9200446084" lon="-1.7703737039"><ele>203.46</ele><time>2015-03-25T11:26:21Z</time></trkpt><trkpt lat="51.9199375715" lon="-1.7703172099"><ele>202.49</ele><time>2015-03-25T11:26:33Z</time></trkpt><trkpt lat="51.9198830891" lon="-1.7702941597"><ele>201.53</ele><time>2015-03-25T11:26:39Z</time></trkpt><trkpt lat="51.9198390003" lon="-1.7702810839"><ele>201.53</ele><time>2015-03-25T11:26:45Z</time></trkpt><trkpt lat="51.9197928160" lon="-1.7702527530"><ele>201.05</ele><time>2015-03-25T11:26:52Z</time></trkpt><trkpt lat="51.9197767228" lon="-1.7702395935"><ele>200.57</ele><time>2015-03-25T11:26:54Z</time></trkpt><trkpt lat="51.9197061472" lon="-1.7701960076"><ele>199.61</ele><time>2015-03-25T11:27:01Z</time></trkpt><trkpt lat="51.9196057320" lon="-1.7701603007"><ele>199.13</ele><time>2015-03-25T11:27:13Z</time></trkpt><trkpt lat="51.9195236731" lon="-1.7701331433"><ele>198.65</ele><time>2015-03-25T11:27:22Z</time></trkpt><trkpt lat="51.9194853678" lon="-1.7701004539"><ele>199.13</ele><time>2015-03-25T11:27:26Z</time></trkpt><trkpt lat="51.9194374233" lon="-1.7700789124"><ele>198.65</ele><time>2015-03-25T11:27:30Z</time></trkpt><trkpt lat="51.9193490781" lon="-1.7700441275"><ele>198.17</ele><time>2015-03-25T11:27:37Z</time></trkpt><trkpt lat="51.9192791730" lon="-1.7700124439"><ele>198.17</ele><time>2015-03-25T11:27:43Z</time></trkpt><trkpt lat="51.9192299712" lon="-1.7700064089"><ele>197.69</ele><time>2015-03-25T11:27:47Z</time></trkpt><trkpt lat="51.9192014728" lon="-1.7699956801"><ele>197.21</ele><time>2015-03-25T11:27:49Z</time></trkpt><trkpt lat="51.9191638380" lon="-1.7699962668"><ele>197.69</ele><time>2015-03-25T11:27:52Z</time></trkpt><trkpt lat="51.9191082660" lon="-1.7699706182"><ele>197.69</ele><time>2015-03-25T11:27:57Z</time></trkpt><trkpt lat="51.9190547895" lon="-1.7699801736"><ele>198.17</ele><time>2015-03-25T11:28:03Z</time></trkpt><trkpt lat="51.9190003909" lon="-1.7699524295"><ele>189.04</ele><time>2015-03-25T11:28:08Z</time></trkpt><trkpt lat="51.9189894106" lon="-1.7699447181"><ele>198.17</ele><time>2015-03-25T11:28:09Z</time></trkpt><trkpt lat="51.9188444875" lon="-1.7698867992"><ele>196.25</ele><time>2015-03-25T11:28:22Z</time></trkpt><trkpt lat="51.9188176654" lon="-1.7698831949"><ele>196.73</ele><time>2015-03-25T11:28:25Z</time></trkpt><trkpt lat="51.9187644403" lon="-1.7699024733"><ele>196.25</ele><time>2015-03-25T11:28:29Z</time></trkpt><trkpt lat="51.9187195133" lon="-1.7698727176"><ele>196.73</ele><time>2015-03-25T11:28:34Z</time></trkpt><trkpt lat="51.9186772685" lon="-1.7698520143"><ele>196.25</ele><time>2015-03-25T11:28:38Z</time></trkpt><trkpt lat="51.9186581578" lon="-1.7698416207"><ele>195.77</ele><time>2015-03-25T11:28:40Z</time></trkpt><trkpt lat="51.9186404720" lon="-1.7698227614"><ele>196.25</ele><time>2015-03-25T11:28:42Z</time></trkpt><trkpt lat="51.9185482711" lon="-1.7697553709"><ele>195.77</ele><time>2015-03-25T11:28:50Z</time></trkpt><trkpt lat="51.9185119774" lon="-1.7697652616"><ele>195.28</ele><time>2015-03-25T11:28:53Z</time></trkpt><trkpt lat="51.9184340257" lon="-1.7697651777"><ele>195.28</ele><time>2015-03-25T11:29:01Z</time></trkpt><trkpt lat="51.9183775317" lon="-1.7697686981"><ele>195.28</ele><time>2015-03-25T11:29:07Z</time></trkpt><trkpt lat="51.9183181040" lon="-1.7697191611"><ele>195.28</ele><time>2015-03-25T11:29:12Z</time></trkpt><trkpt lat="51.9182165992" lon="-1.7696891539"><ele>194.80</ele><time>2015-03-25T11:29:22Z</time></trkpt><trkpt lat="51.9181088917" lon="-1.7696676124"><ele>193.84</ele><time>2015-03-25T11:29:34Z</time></trkpt><trkpt lat="51.9180507213" lon="-1.7696536146"><ele>193.36</ele><time>2015-03-25T11:29:40Z</time></trkpt><trkpt lat="51.9180238992" lon="-1.7696438916"><ele>192.88</ele><time>2015-03-25T11:29:43Z</time></trkpt><trkpt lat="51.9178792275" lon="-1.7695595697"><ele>192.88</ele><time>2015-03-25T11:29:56Z</time></trkpt><trkpt lat="51.9178076461" lon="-1.7695262097"><ele>192.40</ele><time>2015-03-25T11:30:01Z</time></trkpt><trkpt lat="51.9177287724" lon="-1.7694561370"><ele>192.40</ele><time>2015-03-25T11:30:08Z</time></trkpt><trkpt lat="51.9176858570" lon="-1.7694242857"><ele>191.92</ele><time>2015-03-25T11:30:11Z</time></trkpt><trkpt lat="51.9175612181" lon="-1.7693747487"><ele>191.44</ele><time>2015-03-25T11:30:22Z</time></trkpt><trkpt lat="51.9175188895" lon="-1.7693623435"><ele>191.44</ele><time>2015-03-25T11:30:26Z</time></trkpt><trkpt lat="51.9174697716" lon="-1.7693453282"><ele>191.44</ele><time>2015-03-25T11:30:31Z</time></trkpt><trkpt lat="51.9173951726" lon="-1.7692802008"><ele>190.96</ele><time>2015-03-25T11:30:37Z</time></trkpt><trkpt lat="51.9173113536" lon="-1.7692173366"><ele>190.48</ele><time>2015-03-25T11:30:44Z</time></trkpt><trkpt lat="51.9172767363" lon="-1.7692290712"><ele>190.00</ele><time>2015-03-25T11:30:47Z</time></trkpt><trkpt lat="51.9171841163" lon="-1.7691930290"><ele>189.52</ele><time>2015-03-25T11:30:54Z</time></trkpt><trkpt lat="51.9171039015" lon="-1.7691723257"><ele>189.52</ele><time>2015-03-25T11:31:02Z</time></trkpt><trkpt lat="51.9169944339" lon="-1.7691757623"><ele>189.04</ele><time>2015-03-25T11:31:13Z</time></trkpt><trkpt lat="51.9168856367" lon="-1.7691466771"><ele>188.08</ele><time>2015-03-25T11:31:26Z</time></trkpt><trkpt lat="51.9168488402" lon="-1.7691340204"><ele>187.59</ele><time>2015-03-25T11:31:29Z</time></trkpt><trkpt lat="51.9167966209" lon="-1.7691193521"><ele>187.59</ele><time>2015-03-25T11:31:33Z</time></trkpt><trkpt lat="51.9167518616" lon="-1.7691204417"><ele>187.11</ele><time>2015-03-25T11:31:37Z</time></trkpt><trkpt lat="51.9167216029" lon="-1.7691331822"><ele>186.63</ele><time>2015-03-25T11:31:40Z</time></trkpt><trkpt lat="51.9166957028" lon="-1.7691460066"><ele>186.63</ele><time>2015-03-25T11:31:43Z</time></trkpt><trkpt lat="51.9165918510" lon="-1.7690755147"><ele>186.15</ele><time>2015-03-25T11:31:55Z</time></trkpt><trkpt lat="51.9165272266" lon="-1.7690593377"><ele>185.67</ele><time>2015-03-25T11:32:02Z</time></trkpt><trkpt lat="51.9164624345" lon="-1.7690548114"><ele>178.94</ele><time>2015-03-25T11:32:08Z</time></trkpt><trkpt lat="51.9164613448" lon="-1.7690553144"><ele>187.59</ele><time>2015-03-25T11:32:09Z</time></trkpt><trkpt lat="51.9164512865" lon="-1.7690602597"><ele>185.67</ele><time>2015-03-25T11:32:10Z</time></trkpt><trkpt lat="51.9163576607" lon="-1.7689895164"><ele>184.71</ele><time>2015-03-25T11:32:17Z</time></trkpt><trkpt lat="51.9163196906" lon="-1.7690034304"><ele>184.23</ele><time>2015-03-25T11:32:20Z</time></trkpt><trkpt lat="51.9162616879" lon="-1.7690130696"><ele>183.75</ele><time>2015-03-25T11:32:25Z</time></trkpt><trkpt lat="51.9161343668" lon="-1.7689764407"><ele>182.79</ele><time>2015-03-25T11:32:37Z</time></trkpt><trkpt lat="51.9161051977" lon="-1.7689901032"><ele>182.31</ele><time>2015-03-25T11:32:40Z</time></trkpt><trkpt lat="51.9160801359" lon="-1.7690009158"><ele>182.79</ele><time>2015-03-25T11:32:42Z</time></trkpt><trkpt lat="51.9159526471" lon="-1.7690534703"><ele>181.35</ele><time>2015-03-25T11:32:54Z</time></trkpt><trkpt lat="51.9158129208" lon="-1.7691192683"><ele>179.90</ele><time>2015-03-25T11:33:07Z</time></trkpt><trkpt lat="51.9156658184" lon="-1.7691465095"><ele>178.46</ele><time>2015-03-25T11:33:21Z</time></trkpt><trkpt lat="51.9155340549" lon="-1.7691857368"><ele>177.50</ele><time>2015-03-25T11:33:35Z</time></trkpt><trkpt lat="51.9154136069" lon="-1.7692931928"><ele>176.54</ele><time>2015-03-25T11:33:48Z</time></trkpt><trkpt lat="51.9153873716" lon="-1.7693201825"><ele>176.54</ele><time>2015-03-25T11:33:59Z</time></trkpt><trkpt lat="51.9153561071" lon="-1.7693521176"><ele>176.06</ele><time>2015-03-25T11:34:02Z</time></trkpt><trkpt lat="51.9152384251" lon="-1.7694480903"><ele>175.58</ele><time>2015-03-25T11:34:11Z</time></trkpt><trkpt lat="51.9151909836" lon="-1.7694956996"><ele>175.10</ele><time>2015-03-25T11:34:15Z</time></trkpt><trkpt lat="51.9150281232" lon="-1.7696448136"><ele>173.66</ele><time>2015-03-25T11:34:30Z</time></trkpt><trkpt lat="51.9149428792" lon="-1.7697719671"><ele>172.69</ele><time>2015-03-25T11:34:45Z</time></trkpt><trkpt lat="51.9148536120" lon="-1.7699497472"><ele>171.73</ele><time>2015-03-25T11:34:56Z</time></trkpt><trkpt lat="51.9147972018" lon="-1.7700406909"><ele>171.25</ele><time>2015-03-25T11:35:07Z</time></trkpt><trkpt lat="51.9147534482" lon="-1.7701379210"><ele>170.29</ele><time>2015-03-25T11:35:14Z</time></trkpt><trkpt lat="51.9146952778" lon="-1.7702899687"><ele>169.33</ele><time>2015-03-25T11:35:24Z</time></trkpt><trkpt lat="51.9146387000" lon="-1.7704215646"><ele>168.85</ele><time>2015-03-25T11:35:33Z</time></trkpt><trkpt lat="51.9145852234" lon="-1.7706410028"><ele>168.85</ele><time>2015-03-25T11:35:45Z</time></trkpt><trkpt lat="51.9145428110" lon="-1.7708029412"><ele>168.37</ele><time>2015-03-25T11:35:54Z</time></trkpt><trkpt lat="51.9145038351" lon="-1.7710472737"><ele>167.89</ele><time>2015-03-25T11:36:05Z</time></trkpt><trkpt lat="51.9144853111" lon="-1.7713350244"><ele>166.93</ele><time>2015-03-25T11:36:21Z</time></trkpt><trkpt lat="51.9144913461" lon="-1.7715578154"><ele>165.96</ele><time>2015-03-25T11:36:33Z</time></trkpt><trkpt lat="51.9144903403" lon="-1.7717371881"><ele>165.00</ele><time>2015-03-25T11:36:47Z</time></trkpt><trkpt lat="51.9144190941" lon="-1.7720686086"><ele>165.00</ele><time>2015-03-25T11:37:00Z</time></trkpt><trkpt lat="51.9143841416" lon="-1.7722544353"><ele>164.04</ele><time>2015-03-25T11:37:12Z</time></trkpt><trkpt lat="51.9143534638" lon="-1.7725613806"><ele>163.56</ele><time>2015-03-25T11:37:27Z</time></trkpt><trkpt lat="51.9143904280" lon="-1.7727616243"><ele>162.60</ele><time>2015-03-25T11:37:41Z</time></trkpt><trkpt lat="51.9144077785" lon="-1.7728555016"><ele>162.12</ele><time>2015-03-25T11:37:47Z</time></trkpt><trkpt lat="51.9144118018" lon="-1.7729995027"><ele>161.16</ele><time>2015-03-25T11:37:54Z</time></trkpt><trkpt lat="51.9144215249" lon="-1.7730755266"><ele>161.64</ele><time>2015-03-25T11:37:58Z</time></trkpt><trkpt lat="51.9144531246" lon="-1.7733007483"><ele>160.68</ele><time>2015-03-25T11:38:11Z</time></trkpt><trkpt lat="51.9145048410" lon="-1.7735149898"><ele>160.20</ele><time>2015-03-25T11:38:24Z</time></trkpt><trkpt lat="51.9145590719" lon="-1.7737428937"><ele>158.75</ele><time>2015-03-25T11:38:37Z</time></trkpt><trkpt lat="51.9145686273" lon="-1.7738506850"><ele>159.24</ele><time>2015-03-25T11:38:42Z</time></trkpt><trkpt lat="51.9145833794" lon="-1.7739039101"><ele>158.75</ele><time>2015-03-25T11:38:46Z</time></trkpt><trkpt lat="51.9145962875" lon="-1.7739659362"><ele>157.79</ele><time>2015-03-25T11:38:50Z</time></trkpt><trkpt lat="51.9146264624" lon="-1.7741624080"><ele>158.27</ele><time>2015-03-25T11:39:02Z</time></trkpt><trkpt lat="51.9146845490" lon="-1.7743651662"><ele>157.31</ele><time>2015-03-25T11:39:16Z</time></trkpt><trkpt lat="51.9146982115" lon="-1.7744699400"><ele>156.83</ele><time>2015-03-25T11:39:22Z</time></trkpt><trkpt lat="51.9146955293" lon="-1.7745259311"><ele>156.35</ele><time>2015-03-25T11:39:25Z</time></trkpt><trkpt lat="51.9147048332" lon="-1.7745870352"><ele>156.35</ele><time>2015-03-25T11:39:29Z</time></trkpt><trkpt lat="51.9147173222" lon="-1.7746361531"><ele>155.87</ele><time>2015-03-25T11:39:32Z</time></trkpt><trkpt lat="51.9147580583" lon="-1.7748720199"><ele>155.39</ele><time>2015-03-25T11:39:46Z</time></trkpt><trkpt lat="51.9147913344" lon="-1.7751358822"><ele>154.91</ele><time>2015-03-25T11:40:01Z</time></trkpt><trkpt lat="51.9147983752" lon="-1.7751846649"><ele>155.39</ele><time>2015-03-25T11:40:04Z</time></trkpt><trkpt lat="51.9148200843" lon="-1.7754061986"><ele>154.91</ele><time>2015-03-25T11:40:18Z</time></trkpt><trkpt lat="51.9148213416" lon="-1.7754243873"><ele>154.91</ele><time>2015-03-25T11:40:19Z</time></trkpt><trkpt lat="51.9148340821" lon="-1.7756265588"><ele>154.43</ele><time>2015-03-25T11:40:33Z</time></trkpt><trkpt lat="51.9148553722" lon="-1.7756703962"><ele>154.43</ele><time>2015-03-25T11:40:49Z</time></trkpt><trkpt lat="51.9148952700" lon="-1.7757351045"><ele>153.95</ele><time>2015-03-25T11:41:03Z</time></trkpt><trkpt lat="51.9149116985" lon="-1.7759317439"><ele>153.47</ele><time>2015-03-25T11:41:15Z</time></trkpt><trkpt lat="51.9148924202" lon="-1.7761343345"><ele>152.99</ele><time>2015-03-25T11:41:27Z</time></trkpt><trkpt lat="51.9148977008" lon="-1.7764362507"><ele>152.51</ele><time>2015-03-25T11:41:42Z</time></trkpt><trkpt lat="51.9148928393" lon="-1.7766961735"><ele>152.03</ele><time>2015-03-25T11:42:00Z</time></trkpt><trkpt lat="51.9149071723" lon="-1.7768001091"><ele>151.54</ele><time>2015-03-25T11:42:07Z</time></trkpt><trkpt lat="51.9149257801" lon="-1.7771008518"><ele>150.58</ele><time>2015-03-25T11:42:21Z</time></trkpt><trkpt lat="51.9149593916" lon="-1.7773897760"><ele>150.10</ele><time>2015-03-25T11:42:35Z</time></trkpt><trkpt lat="51.9149635825" lon="-1.7775887623"><ele>149.14</ele><time>2015-03-25T11:42:51Z</time></trkpt><trkpt lat="51.9149893988" lon="-1.7777689733"><ele>147.70</ele><time>2015-03-25T11:42:59Z</time></trkpt><trkpt lat="51.9149950985" lon="-1.7780708894"><ele>146.74</ele><time>2015-03-25T11:43:15Z</time></trkpt><trkpt lat="51.9149934221" lon="-1.7782216799"><ele>144.82</ele><time>2015-03-25T11:43:27Z</time></trkpt><trkpt lat="51.9150601421" lon="-1.7784315627"><ele>145.78</ele><time>2015-03-25T11:43:43Z</time></trkpt><trkpt lat="51.9150774088" lon="-1.7784962710"><ele>144.82</ele><time>2015-03-25T11:43:57Z</time></trkpt><trkpt lat="51.9150750618" lon="-1.7784995399"><ele>144.82</ele><time>2015-03-25T11:44:28Z</time></trkpt><trkpt lat="51.9150783308" lon="-1.7784943432"><ele>144.82</ele><time>2015-03-25T11:44:48Z</time></trkpt><trkpt lat="51.9150878023" lon="-1.7784956004"><ele>144.34</ele><time>2015-03-25T11:45:12Z</time></trkpt><trkpt lat="51.9150922447" lon="-1.7784990370"><ele>141.45</ele><time>2015-03-25T11:45:29Z</time></trkpt><trkpt lat="51.9150920771" lon="-1.7784997076"><ele>144.82</ele><time>2015-03-25T11:45:30Z</time></trkpt><trkpt lat="51.9150961004" lon="-1.7785126995"><ele>144.34</ele><time>2015-03-25T11:45:47Z</time></trkpt><trkpt lat="51.9151007943" lon="-1.7785214167"><ele>144.82</ele><time>2015-03-25T11:46:13Z</time></trkpt><trkpt lat="51.9151048176" lon="-1.7785215005"><ele>144.82</ele><time>2015-03-25T11:46:38Z</time></trkpt><trkpt lat="51.9151085056" lon="-1.7785194051"><ele>145.30</ele><time>2015-03-25T11:46:57Z</time></trkpt><trkpt lat="51.9151137862" lon="-1.7785163876"><ele>145.30</ele><time>2015-03-25T11:47:15Z</time></trkpt><trkpt lat="51.9151165523" lon="-1.7785190698"><ele>145.30</ele><time>2015-03-25T11:47:34Z</time></trkpt><trkpt lat="51.9151209947" lon="-1.7785245180"><ele>145.30</ele><time>2015-03-25T11:48:05Z</time></trkpt><trkpt lat="51.9151222520" lon="-1.7785204109"><ele>152.03</ele><time>2015-03-25T11:48:27Z</time></trkpt><trkpt lat="51.9151226711" lon="-1.7785197403"><ele>145.78</ele><time>2015-03-25T11:48:28Z</time></trkpt><trkpt lat="51.9150864612" lon="-1.7783968616"><ele>146.74</ele><time>2015-03-25T11:48:42Z</time></trkpt><trkpt lat="51.9150656741" lon="-1.7783075944"><ele>147.22</ele><time>2015-03-25T11:48:49Z</time></trkpt><trkpt lat="51.9150412828" lon="-1.7780125514"><ele>148.66</ele><time>2015-03-25T11:49:04Z</time></trkpt><trkpt lat="51.9150547776" lon="-1.7777924426"><ele>149.62</ele><time>2015-03-25T11:49:19Z</time></trkpt><trkpt lat="51.9150613155" lon="-1.7775416560"><ele>151.06</ele><time>2015-03-25T11:49:33Z</time></trkpt><trkpt lat="51.9150899816" lon="-1.7772811465"><ele>152.51</ele><time>2015-03-25T11:49:48Z</time></trkpt><trkpt lat="51.9150747266" lon="-1.7771378160"><ele>152.99</ele><time>2015-03-25T11:49:54Z</time></trkpt><trkpt lat="51.9150823541" lon="-1.7769669089"><ele>153.47</ele><time>2015-03-25T11:50:08Z</time></trkpt><trkpt lat="51.9150705356" lon="-1.7768818326"><ele>153.95</ele><time>2015-03-25T11:50:16Z</time></trkpt><trkpt lat="51.9150197413" lon="-1.7765191477"><ele>154.43</ele><time>2015-03-25T11:50:30Z</time></trkpt><trkpt lat="51.9150070008" lon="-1.7762995418"><ele>155.39</ele><time>2015-03-25T11:50:44Z</time></trkpt><trkpt lat="51.9149949308" lon="-1.7761655990"><ele>155.87</ele><time>2015-03-25T11:50:57Z</time></trkpt><trkpt lat="51.9149727188" lon="-1.7759164888"><ele>156.83</ele><time>2015-03-25T11:51:11Z</time></trkpt><trkpt lat="51.9149353355" lon="-1.7757109646"><ele>156.83</ele><time>2015-03-25T11:51:27Z</time></trkpt><trkpt lat="51.9149362575" lon="-1.7754056957"><ele>156.83</ele><time>2015-03-25T11:51:40Z</time></trkpt><trkpt lat="51.9149333239" lon="-1.7752077989"><ele>156.83</ele><time>2015-03-25T11:51:52Z</time></trkpt><trkpt lat="51.9149286300" lon="-1.7750706710"><ele>157.79</ele><time>2015-03-25T11:52:02Z</time></trkpt><trkpt lat="51.9148895703" lon="-1.7749502230"><ele>158.27</ele><time>2015-03-25T11:52:12Z</time></trkpt><trkpt lat="51.9148872234" lon="-1.7749342136"><ele>158.27</ele><time>2015-03-25T11:52:13Z</time></trkpt><trkpt lat="51.9148511812" lon="-1.7747307010"><ele>158.27</ele><time>2015-03-25T11:52:27Z</time></trkpt><trkpt lat="51.9148247782" lon="-1.7745389231"><ele>158.75</ele><time>2015-03-25T11:52:40Z</time></trkpt><trkpt lat="51.9148194976" lon="-1.7744919844"><ele>158.75</ele><time>2015-03-25T11:52:43Z</time></trkpt><trkpt lat="51.9148061704" lon="-1.7744438723"><ele>159.24</ele><time>2015-03-25T11:52:46Z</time></trkpt><trkpt lat="51.9147953577" lon="-1.7743946705"><ele>159.72</ele><time>2015-03-25T11:52:49Z</time></trkpt><trkpt lat="51.9147402048" lon="-1.7741805129"><ele>160.20</ele><time>2015-03-25T11:53:02Z</time></trkpt><trkpt lat="51.9147024024" lon="-1.7739761621"><ele>160.68</ele><time>2015-03-25T11:53:14Z</time></trkpt><trkpt lat="51.9146511890" lon="-1.7738171574"><ele>161.16</ele><time>2015-03-25T11:53:25Z</time></trkpt><trkpt lat="51.9146416336" lon="-1.7737491801"><ele>155.87</ele><time>2015-03-25T11:53:30Z</time></trkpt><trkpt lat="51.9146293961" lon="-1.7737097014"><ele>162.12</ele><time>2015-03-25T11:53:31Z</time></trkpt><trkpt lat="51.9146231096" lon="-1.7736906745"><ele>161.64</ele><time>2015-03-25T11:53:32Z</time></trkpt><trkpt lat="51.9146037474" lon="-1.7736196797"><ele>162.12</ele><time>2015-03-25T11:53:36Z</time></trkpt><trkpt lat="51.9145514444" lon="-1.7734807078"><ele>162.12</ele><time>2015-03-25T11:53:47Z</time></trkpt><trkpt lat="51.9145411346" lon="-1.7733427417"><ele>163.08</ele><time>2015-03-25T11:53:57Z</time></trkpt><trkpt lat="51.9145232812" lon="-1.7733016703"><ele>163.08</ele><time>2015-03-25T11:54:14Z</time></trkpt><trkpt lat="51.9145081099" lon="-1.7731910292"><ele>163.08</ele><time>2015-03-25T11:54:25Z</time></trkpt><trkpt lat="51.9144636858" lon="-1.7730192002"><ele>164.04</ele><time>2015-03-25T11:54:38Z</time></trkpt><trkpt lat="51.9144126400" lon="-1.7727301084"><ele>165.00</ele><time>2015-03-25T11:54:56Z</time></trkpt><trkpt lat="51.9144133944" lon="-1.7725089099"><ele>165.48</ele><time>2015-03-25T11:55:09Z</time></trkpt><trkpt lat="51.9144055154" lon="-1.7722680140"><ele>165.96</ele><time>2015-03-25T11:55:24Z</time></trkpt><trkpt lat="51.9144102931" lon="-1.7721520085"><ele>166.93</ele><time>2015-03-25T11:55:30Z</time></trkpt><trkpt lat="51.9144329242" lon="-1.7720184848"><ele>166.93</ele><time>2015-03-25T11:55:39Z</time></trkpt><trkpt lat="51.9144256320" lon="-1.7719939258"><ele>166.45</ele><time>2015-03-25T11:55:40Z</time></trkpt><trkpt lat="51.9144290686" lon="-1.7719188239"><ele>167.41</ele><time>2015-03-25T11:55:45Z</time></trkpt><trkpt lat="51.9144468382" lon="-1.7717209272"><ele>167.89</ele><time>2015-03-25T11:55:58Z</time></trkpt><trkpt lat="51.9144673739" lon="-1.7715127207"><ele>168.37</ele><time>2015-03-25T11:56:11Z</time></trkpt><trkpt lat="51.9144729059" lon="-1.7712735850"><ele>169.33</ele><time>2015-03-25T11:56:25Z</time></trkpt><trkpt lat="51.9145129714" lon="-1.7711094674"><ele>169.81</ele><time>2015-03-25T11:56:36Z</time></trkpt><trkpt lat="51.9145520311" lon="-1.7709752731"><ele>171.25</ele><time>2015-03-25T11:56:48Z</time></trkpt><trkpt lat="51.9145557191" lon="-1.7709614430"><ele>170.77</ele><time>2015-03-25T11:56:49Z</time></trkpt><trkpt lat="51.9145783503" lon="-1.7708492093"><ele>171.73</ele><time>2015-03-25T11:56:55Z</time></trkpt><trkpt lat="51.9145840500" lon="-1.7707969062"><ele>171.73</ele><time>2015-03-25T11:56:58Z</time></trkpt><trkpt lat="51.9146614987" lon="-1.7705619615"><ele>173.17</ele><time>2015-03-25T11:57:12Z</time></trkpt><trkpt lat="51.9146650191" lon="-1.7705389112"><ele>172.69</ele><time>2015-03-25T11:57:13Z</time></trkpt><trkpt lat="51.9146977086" lon="-1.7703663278"><ele>173.66</ele><time>2015-03-25T11:57:20Z</time></trkpt><trkpt lat="51.9147639256" lon="-1.7700927425"><ele>168.85</ele><time>2015-03-25T11:57:35Z</time></trkpt><trkpt lat="51.9147697929" lon="-1.7700767331"><ele>175.10</ele><time>2015-03-25T11:57:36Z</time></trkpt><trkpt lat="51.9147873111" lon="-1.7699923273"><ele>174.62</ele><time>2015-03-25T11:57:40Z</time></trkpt><trkpt lat="51.9148199167" lon="-1.7699321453"><ele>175.10</ele><time>2015-03-25T11:57:45Z</time></trkpt><trkpt lat="51.9149137940" lon="-1.7697610706"><ele>175.58</ele><time>2015-03-25T11:57:59Z</time></trkpt><trkpt lat="51.9150051568" lon="-1.7695525289"><ele>177.98</ele><time>2015-03-25T11:58:15Z</time></trkpt><trkpt lat="51.9150872156" lon="-1.7693212721"><ele>178.46</ele><time>2015-03-25T11:58:28Z</time></trkpt><trkpt lat="51.9151561148" lon="-1.7690829746"><ele>180.87</ele><time>2015-03-25T11:58:42Z</time></trkpt><trkpt lat="51.9151577074" lon="-1.7690460943"><ele>181.35</ele><time>2015-03-25T11:58:55Z</time></trkpt><trkpt lat="51.9151623175" lon="-1.7689310946"><ele>182.79</ele><time>2015-03-25T11:59:05Z</time></trkpt><trkpt lat="51.9151499122" lon="-1.7688469402"><ele>184.71</ele><time>2015-03-25T11:59:13Z</time></trkpt><trkpt lat="51.9151097629" lon="-1.7686191201"><ele>186.15</ele><time>2015-03-25T11:59:26Z</time></trkpt><trkpt lat="51.9150935858" lon="-1.7684875242"><ele>187.59</ele><time>2015-03-25T11:59:35Z</time></trkpt><trkpt lat="51.9150654227" lon="-1.7683191318"><ele>189.04</ele><time>2015-03-25T11:59:49Z</time></trkpt><trkpt lat="51.9150629919" lon="-1.7683186289"><ele>189.52</ele><time>2015-03-25T12:00:05Z</time></trkpt><trkpt lat="51.9150588010" lon="-1.7683502287"><ele>189.04</ele><time>2015-03-25T12:00:19Z</time></trkpt><trkpt lat="51.9150567055" lon="-1.7683253344"><ele>188.56</ele><time>2015-03-25T12:00:46Z</time></trkpt><trkpt lat="51.9150405284" lon="-1.7683603708"><ele>189.04</ele><time>2015-03-25T12:01:01Z</time></trkpt><trkpt lat="51.9150250219" lon="-1.7684089858"><ele>188.56</ele><time>2015-03-25T12:01:05Z</time></trkpt><trkpt lat="51.9150114432" lon="-1.7684312817"><ele>188.56</ele><time>2015-03-25T12:01:07Z</time></trkpt><trkpt lat="51.9148551207" lon="-1.7687276658"><ele>190.48</ele><time>2015-03-25T12:01:25Z</time></trkpt><trkpt lat="51.9148645084" lon="-1.7686985806"><ele>190.96</ele><time>2015-03-25T12:01:41Z</time></trkpt><trkpt lat="51.9148916658" lon="-1.7686129175"><ele>190.96</ele><time>2015-03-25T12:02:08Z</time></trkpt><trkpt lat="51.9149007183" lon="-1.7685673200"><ele>189.52</ele><time>2015-03-25T12:02:25Z</time></trkpt><trkpt lat="51.9149013050" lon="-1.7686338723"><ele>190.00</ele><time>2015-03-25T12:02:51Z</time></trkpt><trkpt lat="51.9148981199" lon="-1.7686275020"><ele>190.00</ele><time>2015-03-25T12:03:13Z</time></trkpt><trkpt lat="51.9149040710" lon="-1.7686486244"><ele>189.52</ele><time>2015-03-25T12:03:32Z</time></trkpt><trkpt lat="51.9149210863" lon="-1.7686221376"><ele>189.52</ele><time>2015-03-25T12:03:38Z</time></trkpt><trkpt lat="51.9149760716" lon="-1.7684752867"><ele>188.08</ele><time>2015-03-25T12:03:45Z</time></trkpt><trkpt lat="51.9150572084" lon="-1.7683044635"><ele>188.08</ele><time>2015-03-25T12:03:59Z</time></trkpt><trkpt lat="51.9150275365" lon="-1.7683051340"><ele>188.56</ele><time>2015-03-25T12:04:05Z</time></trkpt><trkpt lat="51.9149857108" lon="-1.7682882026"><ele>179.90</ele><time>2015-03-25T12:04:08Z</time></trkpt><trkpt lat="51.9149726350" lon="-1.7682848498"><ele>190.00</ele><time>2015-03-25T12:04:09Z</time></trkpt><trkpt lat="51.9149469864" lon="-1.7682865262"><ele>189.52</ele><time>2015-03-25T12:04:11Z</time></trkpt><trkpt lat="51.9147474132" lon="-1.7683382425"><ele>191.44</ele><time>2015-03-25T12:04:26Z</time></trkpt><trkpt lat="51.9146504346" lon="-1.7683617119"><ele>192.40</ele><time>2015-03-25T12:04:34Z</time></trkpt><trkpt lat="51.9145997241" lon="-1.7683637235"><ele>192.88</ele><time>2015-03-25T12:04:38Z</time></trkpt><trkpt lat="51.9144379534" lon="-1.7684111651"><ele>195.77</ele><time>2015-03-25T12:04:53Z</time></trkpt><trkpt lat="51.9144379534" lon="-1.7684087344"><ele>195.77</ele><time>2015-03-25T12:04:55Z</time></trkpt><trkpt lat="51.9143341016" lon="-1.7683966644"><ele>196.25</ele><time>2015-03-25T12:05:04Z</time></trkpt><trkpt lat="51.9142396376" lon="-1.7683416791"><ele>196.73</ele><time>2015-03-25T12:05:14Z</time></trkpt><trkpt lat="51.9141815510" lon="-1.7683135998"><ele>196.73</ele><time>2015-03-25T12:05:19Z</time></trkpt><trkpt lat="51.9140113145" lon="-1.7681001965"><ele>197.21</ele><time>2015-03-25T12:05:35Z</time></trkpt><trkpt lat="51.9138655532" lon="-1.7679342348"><ele>197.69</ele><time>2015-03-25T12:05:48Z</time></trkpt><trkpt lat="51.9137364719" lon="-1.7677581310"><ele>197.21</ele><time>2015-03-25T12:06:01Z</time></trkpt><trkpt lat="51.9135851786" lon="-1.7675917502"><ele>197.69</ele><time>2015-03-25T12:06:15Z</time></trkpt><trkpt lat="51.9134553429" lon="-1.7674679495"><ele>197.69</ele><time>2015-03-25T12:06:27Z</time></trkpt><trkpt lat="51.9133589510" lon="-1.7673648521"><ele>198.17</ele><time>2015-03-25T12:06:37Z</time></trkpt><trkpt lat="51.9132832624" lon="-1.7672770098"><ele>198.65</ele><time>2015-03-25T12:06:45Z</time></trkpt><trkpt lat="51.9131628983" lon="-1.7671418935"><ele>199.61</ele><time>2015-03-25T12:06:58Z</time></trkpt><trkpt lat="51.9131379202" lon="-1.7671421450"><ele>199.13</ele><time>2015-03-25T12:07:09Z</time></trkpt><trkpt lat="51.9131029677" lon="-1.7671321705"><ele>198.65</ele><time>2015-03-25T12:07:13Z</time></trkpt><trkpt lat="51.9130551070" lon="-1.7670828849"><ele>198.65</ele><time>2015-03-25T12:07:18Z</time></trkpt><trkpt lat="51.9130124431" lon="-1.7670428194"><ele>198.65</ele><time>2015-03-25T12:07:22Z</time></trkpt><trkpt lat="51.9129649177" lon="-1.7669858225"><ele>198.17</ele><time>2015-03-25T12:07:27Z</time></trkpt><trkpt lat="51.9129192363" lon="-1.7669334356"><ele>198.17</ele><time>2015-03-25T12:07:31Z</time></trkpt><trkpt lat="51.9128552824" lon="-1.7667327728"><ele>198.17</ele><time>2015-03-25T12:07:44Z</time></trkpt><trkpt lat="51.9128225092" lon="-1.7667043582"><ele>198.17</ele><time>2015-03-25T12:07:53Z</time></trkpt><trkpt lat="51.9128062483" lon="-1.7667017598"><ele>197.69</ele><time>2015-03-25T12:08:04Z</time></trkpt><trkpt lat="51.9127988722" lon="-1.7666399851"><ele>198.65</ele><time>2015-03-25T12:08:22Z</time></trkpt><trkpt lat="51.9128552824" lon="-1.7664616182"><ele>199.13</ele><time>2015-03-25T12:08:38Z</time></trkpt><trkpt lat="51.9128805958" lon="-1.7664373945"><ele>200.09</ele><time>2015-03-25T12:08:41Z</time></trkpt><trkpt lat="51.9129618164" lon="-1.7662922200"><ele>201.05</ele><time>2015-03-25T12:08:55Z</time></trkpt><trkpt lat="51.9130083360" lon="-1.7661822494"><ele>202.01</ele><time>2015-03-25T12:09:04Z</time></trkpt><trkpt lat="51.9130249321" lon="-1.7661563493"><ele>202.01</ele><time>2015-03-25T12:09:06Z</time></trkpt><trkpt lat="51.9130487368" lon="-1.7660342250"><ele>202.98</ele><time>2015-03-25T12:09:18Z</time></trkpt><trkpt lat="51.9130489044" lon="-1.7659789883"><ele>202.49</ele><time>2015-03-25T12:09:42Z</time></trkpt><trkpt lat="51.9130492397" lon="-1.7659778148"><ele>197.69</ele><time>2015-03-25T12:09:44Z</time></trkpt><trkpt lat="51.9130519219" lon="-1.7659702711"><ele>206.34</ele><time>2015-03-25T12:09:45Z</time></trkpt><trkpt lat="51.9130559452" lon="-1.7659692653"><ele>203.46</ele><time>2015-03-25T12:09:46Z</time></trkpt><trkpt lat="51.9130556937" lon="-1.7659685109"><ele>202.49</ele><time>2015-03-25T12:09:48Z</time></trkpt><trkpt lat="51.9130613096" lon="-1.7659550160"><ele>202.98</ele><time>2015-03-25T12:09:49Z</time></trkpt><trkpt lat="51.9131810870" lon="-1.7657014634"><ele>203.94</ele><time>2015-03-25T12:10:06Z</time></trkpt><trkpt lat="51.9133023731" lon="-1.7654932570"><ele>204.90</ele><time>2015-03-25T12:10:19Z</time></trkpt><trkpt lat="51.9134071469" lon="-1.7652547918"><ele>204.90</ele><time>2015-03-25T12:10:35Z</time></trkpt><trkpt lat="51.9134510681" lon="-1.7651656922"><ele>206.34</ele><time>2015-03-25T12:10:40Z</time></trkpt><trkpt lat="51.9135227334" lon="-1.7650274746"><ele>206.82</ele><time>2015-03-25T12:10:49Z</time></trkpt><trkpt lat="51.9135459512" lon="-1.7649380397"><ele>206.82</ele><time>2015-03-25T12:10:54Z</time></trkpt><trkpt lat="51.9137017708" lon="-1.7646626104"><ele>207.78</ele><time>2015-03-25T12:11:11Z</time></trkpt><trkpt lat="51.9137544930" lon="-1.7645251472"><ele>208.74</ele><time>2015-03-25T12:11:19Z</time></trkpt><trkpt lat="51.9137640484" lon="-1.7644937150"><ele>209.70</ele><time>2015-03-25T12:11:21Z</time></trkpt><trkpt lat="51.9138606079" lon="-1.7642517295"><ele>208.26</ele><time>2015-03-25T12:11:35Z</time></trkpt><trkpt lat="51.9139746018" lon="-1.7639887054"><ele>208.74</ele><time>2015-03-25T12:11:50Z</time></trkpt><trkpt lat="51.9140157569" lon="-1.7638739571"><ele>207.30</ele><time>2015-03-25T12:11:56Z</time></trkpt><trkpt lat="51.9140817225" lon="-1.7636313010"><ele>206.82</ele><time>2015-03-25T12:12:10Z</time></trkpt><trkpt lat="51.9141467661" lon="-1.7634166405"><ele>206.82</ele><time>2015-03-25T12:12:24Z</time></trkpt><trkpt lat="51.9141793717" lon="-1.7632984556"><ele>207.30</ele><time>2015-03-25T12:12:31Z</time></trkpt><trkpt lat="51.9142658729" lon="-1.7630213499"><ele>207.30</ele><time>2015-03-25T12:12:48Z</time></trkpt><trkpt lat="51.9143545534" lon="-1.7627710663"><ele>206.34</ele><time>2015-03-25T12:13:03Z</time></trkpt><trkpt lat="51.9143624324" lon="-1.7627138179"><ele>206.34</ele><time>2015-03-25T12:13:17Z</time></trkpt><trkpt lat="51.9143631868" lon="-1.7627081182"><ele>205.86</ele><time>2015-03-25T12:13:33Z</time></trkpt><trkpt lat="51.9143348560" lon="-1.7626866605"><ele>204.90</ele><time>2015-03-25T12:13:42Z</time></trkpt><trkpt lat="51.9142457563" lon="-1.7626333516"><ele>204.42</ele><time>2015-03-25T12:13:54Z</time></trkpt><trkpt lat="51.9141881727" lon="-1.7625985667"><ele>204.90</ele><time>2015-03-25T12:14:01Z</time></trkpt><trkpt lat="51.9141182676" lon="-1.7625547294"><ele>204.42</ele><time>2015-03-25T12:14:08Z</time></trkpt><trkpt lat="51.9139976520" lon="-1.7624803819"><ele>203.46</ele><time>2015-03-25T12:14:21Z</time></trkpt><trkpt lat="51.9138674811" lon="-1.7623810563"><ele>203.94</ele><time>2015-03-25T12:14:33Z</time></trkpt><trkpt lat="51.9137942232" lon="-1.7623616941"><ele>202.98</ele><time>2015-03-25T12:14:40Z</time></trkpt><trkpt lat="51.9137281738" lon="-1.7623326927"><ele>202.49</ele><time>2015-03-25T12:14:49Z</time></trkpt><trkpt lat="51.9136781339" lon="-1.7623336986"><ele>202.98</ele><time>2015-03-25T12:14:53Z</time></trkpt><trkpt lat="51.9135625474" lon="-1.7623340338"><ele>202.49</ele><time>2015-03-25T12:15:05Z</time></trkpt><trkpt lat="51.9135247450" lon="-1.7623373866"><ele>202.01</ele><time>2015-03-25T12:15:09Z</time></trkpt><trkpt lat="51.9134506490" lon="-1.7623756081"><ele>201.53</ele><time>2015-03-25T12:15:16Z</time></trkpt><trkpt lat="51.9132784009" lon="-1.7624160089"><ele>201.53</ele><time>2015-03-25T12:15:30Z</time></trkpt><trkpt lat="51.9132694323" lon="-1.7624139134"><ele>201.05</ele><time>2015-03-25T12:15:31Z</time></trkpt><trkpt lat="51.9131489843" lon="-1.7624226306"><ele>200.57</ele><time>2015-03-25T12:15:42Z</time></trkpt><trkpt lat="51.9131069910" lon="-1.7624514643"><ele>200.09</ele><time>2015-03-25T12:15:47Z</time></trkpt><trkpt lat="51.9130536821" lon="-1.7624464352"><ele>200.09</ele><time>2015-03-25T12:15:51Z</time></trkpt><trkpt lat="51.9129523449" lon="-1.7624823935"><ele>200.09</ele><time>2015-03-25T12:16:01Z</time></trkpt><trkpt lat="51.9128366746" lon="-1.7625113111"><ele>199.13</ele><time>2015-03-25T12:16:12Z</time></trkpt><trkpt lat="51.9127341639" lon="-1.7625783663"><ele>198.65</ele><time>2015-03-25T12:16:23Z</time></trkpt><trkpt lat="51.9125881512" lon="-1.7626431584"><ele>198.17</ele><time>2015-03-25T12:16:37Z</time></trkpt><trkpt lat="51.9125735667" lon="-1.7626515403"><ele>198.17</ele><time>2015-03-25T12:16:39Z</time></trkpt><trkpt lat="51.9124612492" lon="-1.7627299111"><ele>197.69</ele><time>2015-03-25T12:16:50Z</time></trkpt><trkpt lat="51.9123159908" lon="-1.7628097907"><ele>197.21</ele><time>2015-03-25T12:17:03Z</time></trkpt><trkpt lat="51.9121876638" lon="-1.7628976330"><ele>196.73</ele><time>2015-03-25T12:17:16Z</time></trkpt><trkpt lat="51.9121229555" lon="-1.7629438173"><ele>196.73</ele><time>2015-03-25T12:17:22Z</time></trkpt><trkpt lat="51.9119851571" lon="-1.7630481720"><ele>196.25</ele><time>2015-03-25T12:17:35Z</time></trkpt><trkpt lat="51.9119540602" lon="-1.7630668636"><ele>195.28</ele><time>2015-03-25T12:17:38Z</time></trkpt><trkpt lat="51.9118921179" lon="-1.7631055042"><ele>195.77</ele><time>2015-03-25T12:17:45Z</time></trkpt><trkpt lat="51.9117938820" lon="-1.7631692905"><ele>194.80</ele><time>2015-03-25T12:17:55Z</time></trkpt><trkpt lat="51.9117254857" lon="-1.7632236890"><ele>194.80</ele><time>2015-03-25T12:18:01Z</time></trkpt><trkpt lat="51.9115689117" lon="-1.7633314803"><ele>194.80</ele><time>2015-03-25T12:18:17Z</time></trkpt><trkpt lat="51.9115644693" lon="-1.7633396108"><ele>194.80</ele><time>2015-03-25T12:18:18Z</time></trkpt><trkpt lat="51.9115388207" lon="-1.7633808497"><ele>194.32</ele><time>2015-03-25T12:18:41Z</time></trkpt><trkpt lat="51.9114543311" lon="-1.7634521797"><ele>194.32</ele><time>2015-03-25T12:19:06Z</time></trkpt><trkpt lat="51.9114207197" lon="-1.7634800915"><ele>193.36</ele><time>2015-03-25T12:19:11Z</time></trkpt><trkpt lat="51.9112985115" lon="-1.7634729668"><ele>193.36</ele><time>2015-03-25T12:19:22Z</time></trkpt><trkpt lat="51.9111561030" lon="-1.7634667642"><ele>192.40</ele><time>2015-03-25T12:19:38Z</time></trkpt><trkpt lat="51.9110189751" lon="-1.7633783352"><ele>190.96</ele><time>2015-03-25T12:19:54Z</time></trkpt><trkpt lat="51.9109820947" lon="-1.7634033132"><ele>190.48</ele><time>2015-03-25T12:19:58Z</time></trkpt><trkpt lat="51.9108582102" lon="-1.7634594720"><ele>190.00</ele><time>2015-03-25T12:20:13Z</time></trkpt><trkpt lat="51.9107629079" lon="-1.7635011300"><ele>188.56</ele><time>2015-03-25T12:20:24Z</time></trkpt><trkpt lat="51.9105932582" lon="-1.7635288741"><ele>187.59</ele><time>2015-03-25T12:20:38Z</time></trkpt><trkpt lat="51.9104738999" lon="-1.7635565344"><ele>186.15</ele><time>2015-03-25T12:20:54Z</time></trkpt><trkpt lat="51.9104832876" lon="-1.7636528425"><ele>184.71</ele><time>2015-03-25T12:21:09Z</time></trkpt><trkpt lat="51.9104372710" lon="-1.7637353204"><ele>184.23</ele><time>2015-03-25T12:21:24Z</time></trkpt><trkpt lat="51.9104327448" lon="-1.7637399305"><ele>183.75</ele><time>2015-03-25T12:21:25Z</time></trkpt><trkpt lat="51.9103108719" lon="-1.7638239171"><ele>182.31</ele><time>2015-03-25T12:21:40Z</time></trkpt><trkpt lat="51.9102492649" lon="-1.7638882063"><ele>180.87</ele><time>2015-03-25T12:21:51Z</time></trkpt><trkpt lat="51.9102189224" lon="-1.7639432754"><ele>179.90</ele><time>2015-03-25T12:21:56Z</time></trkpt><trkpt lat="51.9100881647" lon="-1.7640402541"><ele>178.46</ele><time>2015-03-25T12:22:08Z</time></trkpt><trkpt lat="51.9100258872" lon="-1.7642032821"><ele>179.90</ele><time>2015-03-25T12:22:21Z</time></trkpt><trkpt lat="51.9099951256" lon="-1.7642140947"><ele>177.02</ele><time>2015-03-25T12:22:27Z</time></trkpt><trkpt lat="51.9098408148" lon="-1.7641844228"><ele>176.06</ele><time>2015-03-25T12:22:43Z</time></trkpt><trkpt lat="51.9098155014" lon="-1.7641658988"><ele>175.58</ele><time>2015-03-25T12:22:45Z</time></trkpt><trkpt lat="51.9096365478" lon="-1.7640350573"><ele>175.10</ele><time>2015-03-25T12:23:02Z</time></trkpt><trkpt lat="51.9095350429" lon="-1.7638778966"><ele>174.14</ele><time>2015-03-25T12:23:16Z</time></trkpt><trkpt lat="51.9094922114" lon="-1.7638126854"><ele>173.66</ele><time>2015-03-25T12:23:22Z</time></trkpt><trkpt lat="51.9094210491" lon="-1.7635988630"><ele>172.69</ele><time>2015-03-25T12:23:39Z</time></trkpt><trkpt lat="51.9093585201" lon="-1.7633869685"><ele>171.73</ele><time>2015-03-25T12:23:54Z</time></trkpt><trkpt lat="51.9093618728" lon="-1.7634000443"><ele>171.73</ele><time>2015-03-25T12:24:14Z</time></trkpt><trkpt lat="51.9093220588" lon="-1.7635841109"><ele>171.25</ele><time>2015-03-25T12:24:25Z</time></trkpt><trkpt lat="51.9091765489" lon="-1.7636951711"><ele>168.37</ele><time>2015-03-25T12:24:39Z</time></trkpt><trkpt lat="51.9090952445" lon="-1.7636823468"><ele>166.93</ele><time>2015-03-25T12:24:54Z</time></trkpt><trkpt lat="51.9090277702" lon="-1.7636275291"><ele>165.00</ele><time>2015-03-25T12:25:06Z</time></trkpt><trkpt lat="51.9089266006" lon="-1.7635282874"><ele>163.08</ele><time>2015-03-25T12:25:17Z</time></trkpt><trkpt lat="51.9087633211" lon="-1.7634603102"><ele>162.60</ele><time>2015-03-25T12:25:32Z</time></trkpt><trkpt lat="51.9086279534" lon="-1.7634156346"><ele>159.72</ele><time>2015-03-25T12:25:46Z</time></trkpt><trkpt lat="51.9086028915" lon="-1.7634108569"><ele>159.72</ele><time>2015-03-25T12:25:48Z</time></trkpt><trkpt lat="51.9084497541" lon="-1.7633658461"><ele>158.27</ele><time>2015-03-25T12:26:02Z</time></trkpt><trkpt lat="51.9084414560" lon="-1.7633613199"><ele>157.79</ele><time>2015-03-25T12:26:06Z</time></trkpt><trkpt lat="51.9084256142" lon="-1.7633729707"><ele>157.79</ele><time>2015-03-25T12:26:08Z</time></trkpt><trkpt lat="51.9084074255" lon="-1.7633827776"><ele>156.83</ele><time>2015-03-25T12:26:10Z</time></trkpt><trkpt lat="51.9083569665" lon="-1.7633757368"><ele>153.47</ele><time>2015-03-25T12:26:16Z</time></trkpt><trkpt lat="51.9083531946" lon="-1.7633706238"><ele>157.31</ele><time>2015-03-25T12:26:17Z</time></trkpt><trkpt lat="51.9083407056" lon="-1.7633618228"><ele>156.35</ele><time>2015-03-25T12:26:43Z</time></trkpt><trkpt lat="51.9082877319" lon="-1.7633811012"><ele>155.39</ele><time>2015-03-25T12:26:52Z</time></trkpt><trkpt lat="51.9082245324" lon="-1.7633814365"><ele>154.91</ele><time>2015-03-25T12:27:05Z</time></trkpt><trkpt lat="51.9081793539" lon="-1.7633389402"><ele>154.43</ele><time>2015-03-25T12:27:20Z</time></trkpt><trkpt lat="51.9081728999" lon="-1.7633424606"><ele>148.18</ele><time>2015-03-25T12:27:24Z</time></trkpt><trkpt lat="51.9081671163" lon="-1.7633424606"><ele>154.91</ele><time>2015-03-25T12:27:25Z</time></trkpt><trkpt lat="51.9081246201" lon="-1.7633660138"><ele>154.91</ele><time>2015-03-25T12:27:34Z</time></trkpt><trkpt lat="51.9080231152" lon="-1.7632119544"><ele>154.43</ele><time>2015-03-25T12:27:51Z</time></trkpt><trkpt lat="51.9079899229" lon="-1.7631474137"><ele>154.43</ele><time>2015-03-25T12:28:10Z</time></trkpt><trkpt lat="51.9079497736" lon="-1.7630604096"><ele>154.43</ele><time>2015-03-25T12:28:20Z</time></trkpt><trkpt lat="51.9078645296" lon="-1.7629426438"><ele>154.43</ele><time>2015-03-25T12:28:33Z</time></trkpt><trkpt lat="51.9077867456" lon="-1.7628258839"><ele>153.95</ele><time>2015-03-25T12:28:47Z</time></trkpt><trkpt lat="51.9076508749" lon="-1.7626525462"><ele>152.03</ele><time>2015-03-25T12:29:04Z</time></trkpt><trkpt lat="51.9075642060" lon="-1.7625640333"><ele>151.54</ele><time>2015-03-25T12:29:13Z</time></trkpt><trkpt lat="51.9073776249" lon="-1.7623904441"><ele>149.14</ele><time>2015-03-25T12:29:32Z</time></trkpt><trkpt lat="51.9072250742" lon="-1.7622667272"><ele>149.14</ele><time>2015-03-25T12:29:49Z</time></trkpt><trkpt lat="51.9070747867" lon="-1.7621064652"><ele>148.66</ele><time>2015-03-25T12:30:05Z</time></trkpt><trkpt lat="51.9069669954" lon="-1.7620039545"><ele>149.14</ele><time>2015-03-25T12:30:19Z</time></trkpt><trkpt lat="51.9068320468" lon="-1.7618806567"><ele>149.14</ele><time>2015-03-25T12:30:34Z</time></trkpt><trkpt lat="51.9066986907" lon="-1.7617285252"><ele>148.66</ele><time>2015-03-25T12:30:50Z</time></trkpt><trkpt lat="51.9065868761" lon="-1.7616161238"><ele>148.66</ele><time>2015-03-25T12:31:06Z</time></trkpt><trkpt lat="51.9065700285" lon="-1.7615996115"><ele>149.62</ele><time>2015-03-25T12:31:08Z</time></trkpt><trkpt lat="51.9065444637" lon="-1.7615688499"><ele>149.62</ele><time>2015-03-25T12:31:10Z</time></trkpt><trkpt lat="51.9064240158" lon="-1.7614179756"><ele>148.18</ele><time>2015-03-25T12:31:23Z</time></trkpt><trkpt lat="51.9062588923" lon="-1.7612393573"><ele>148.18</ele><time>2015-03-25T12:31:41Z</time></trkpt><trkpt lat="51.9062548690" lon="-1.7612531036"><ele>147.70</ele><time>2015-03-25T12:32:04Z</time></trkpt><trkpt lat="51.9062738959" lon="-1.7613303848"><ele>147.22</ele><time>2015-03-25T12:32:16Z</time></trkpt><trkpt lat="51.9061451498" lon="-1.7611928377"><ele>146.74</ele><time>2015-03-25T12:32:32Z</time></trkpt><trkpt lat="51.9059582334" lon="-1.7611727212"><ele>145.30</ele><time>2015-03-25T12:32:49Z</time></trkpt><trkpt lat="51.9057827163" lon="-1.7611851264"><ele>144.34</ele><time>2015-03-25T12:33:06Z</time></trkpt><trkpt lat="51.9056149945" lon="-1.7612728011"><ele>143.85</ele><time>2015-03-25T12:33:24Z</time></trkpt><trkpt lat="51.9054409862" lon="-1.7613478191"><ele>142.89</ele><time>2015-03-25T12:33:42Z</time></trkpt><trkpt lat="51.9054058660" lon="-1.7613349110"><ele>141.93</ele><time>2015-03-25T12:33:49Z</time></trkpt><trkpt lat="51.9051754475" lon="-1.7614106834"><ele>140.97</ele><time>2015-03-25T12:34:04Z</time></trkpt><trkpt lat="51.9049682468" lon="-1.7615463026"><ele>140.01</ele><time>2015-03-25T12:34:16Z</time></trkpt><trkpt lat="51.9047897961" lon="-1.7616243381"><ele>138.57</ele><time>2015-03-25T12:34:32Z</time></trkpt><trkpt lat="51.9046736229" lon="-1.7617110908"><ele>137.13</ele><time>2015-03-25T12:34:47Z</time></trkpt><trkpt lat="51.9045390096" lon="-1.7617677525"><ele>137.13</ele><time>2015-03-25T12:35:01Z</time></trkpt><trkpt lat="51.9043962657" lon="-1.7619638890"><ele>136.64</ele><time>2015-03-25T12:35:11Z</time></trkpt><trkpt lat="51.9042275380" lon="-1.7620795593"><ele>136.16</ele><time>2015-03-25T12:35:25Z</time></trkpt><trkpt lat="51.9040633366" lon="-1.7621796392"><ele>135.68</ele><time>2015-03-25T12:35:40Z</time></trkpt><trkpt lat="51.9039570540" lon="-1.7622707505"><ele>135.68</ele><time>2015-03-25T12:35:56Z</time></trkpt><trkpt lat="51.9039334171" lon="-1.7623032723"><ele>135.68</ele><time>2015-03-25T12:36:00Z</time></trkpt><trkpt lat="51.9038978778" lon="-1.7623433378"><ele>135.68</ele><time>2015-03-25T12:36:04Z</time></trkpt><trkpt lat="51.9036876597" lon="-1.7625465989"><ele>135.20</ele><time>2015-03-25T12:36:25Z</time></trkpt><trkpt lat="51.9036081154" lon="-1.7625795398"><ele>135.20</ele><time>2015-03-25T12:36:33Z</time></trkpt><trkpt lat="51.9035513699" lon="-1.7626305018"><ele>135.20</ele><time>2015-03-25T12:36:39Z</time></trkpt><trkpt lat="51.9034937024" lon="-1.7626881693"><ele>135.20</ele><time>2015-03-25T12:36:44Z</time></trkpt><trkpt lat="51.9033124018" lon="-1.7628398817"><ele>134.72</ele><time>2015-03-25T12:36:59Z</time></trkpt><trkpt lat="51.9031884335" lon="-1.7628717329"><ele>134.72</ele><time>2015-03-25T12:37:14Z</time></trkpt><trkpt lat="51.9031785429" lon="-1.7629024945"><ele>135.68</ele><time>2015-03-25T12:37:33Z</time></trkpt><trkpt lat="51.9031854998" lon="-1.7629274726"><ele>135.68</ele><time>2015-03-25T12:37:53Z</time></trkpt><trkpt lat="51.9031237252" lon="-1.7628900893"><ele>135.68</ele><time>2015-03-25T12:38:09Z</time></trkpt><trkpt lat="51.9031130802" lon="-1.7628598306"><ele>135.68</ele><time>2015-03-25T12:38:11Z</time></trkpt><trkpt lat="51.9030142576" lon="-1.7627025023"><ele>135.20</ele><time>2015-03-25T12:38:25Z</time></trkpt><trkpt lat="51.9030137546" lon="-1.7627028376"><ele>135.20</ele><time>2015-03-25T12:38:26Z</time></trkpt><trkpt lat="51.9028815720" lon="-1.7624937929"><ele>135.20</ele><time>2015-03-25T12:38:40Z</time></trkpt><trkpt lat="51.9028342981" lon="-1.7624672223"><ele>134.24</ele><time>2015-03-25T12:38:44Z</time></trkpt><trkpt lat="51.9027457014" lon="-1.7624942958"><ele>135.20</ele><time>2015-03-25T12:38:54Z</time></trkpt><trkpt lat="51.9026166201" lon="-1.7626263946"><ele>134.72</ele><time>2015-03-25T12:39:07Z</time></trkpt><trkpt lat="51.9024462160" lon="-1.7627553921"><ele>134.72</ele><time>2015-03-25T12:39:23Z</time></trkpt><trkpt lat="51.9022692740" lon="-1.7628943641"><ele>135.20</ele><time>2015-03-25T12:39:40Z</time></trkpt><trkpt lat="51.9020869676" lon="-1.7630784307"><ele>134.72</ele><time>2015-03-25T12:39:59Z</time></trkpt><trkpt lat="51.9019422960" lon="-1.7632489186"><ele>134.72</ele><time>2015-03-25T12:40:15Z</time></trkpt><trkpt lat="51.9017827883" lon="-1.7633717135"><ele>134.24</ele><time>2015-03-25T12:40:31Z</time></trkpt><trkpt lat="51.9016884081" lon="-1.7634629086"><ele>133.28</ele><time>2015-03-25T12:40:41Z</time></trkpt><trkpt lat="51.9015755039" lon="-1.7635825183"><ele>133.76</ele><time>2015-03-25T12:40:55Z</time></trkpt><trkpt lat="51.9014175888" lon="-1.7635974381"><ele>133.28</ele><time>2015-03-25T12:41:11Z</time></trkpt><trkpt lat="51.9012605958" lon="-1.7633550335"><ele>133.76</ele><time>2015-03-25T12:41:25Z</time></trkpt><trkpt lat="51.9012294151" lon="-1.7632853799"><ele>133.76</ele><time>2015-03-25T12:41:42Z</time></trkpt><trkpt lat="51.9012434129" lon="-1.7632982880"><ele>133.76</ele><time>2015-03-25T12:42:06Z</time></trkpt><trkpt lat="51.9012507051" lon="-1.7633095197"><ele>133.76</ele><time>2015-03-25T12:42:32Z</time></trkpt><trkpt lat="51.9012381323" lon="-1.7632847093"><ele>133.76</ele><time>2015-03-25T12:42:46Z</time></trkpt><trkpt lat="51.9012258947" lon="-1.7631100304"><ele>133.76</ele><time>2015-03-25T12:43:00Z</time></trkpt><trkpt lat="51.9012227934" lon="-1.7630822025"><ele>133.76</ele><time>2015-03-25T12:43:02Z</time></trkpt><trkpt lat="51.9012258109" lon="-1.7629431468"><ele>133.76</ele><time>2015-03-25T12:43:08Z</time></trkpt><trkpt lat="51.9012482744" lon="-1.7625888437"><ele>133.28</ele><time>2015-03-25T12:43:25Z</time></trkpt><trkpt lat="51.9012890942" lon="-1.7622170225"><ele>133.28</ele><time>2015-03-25T12:43:41Z</time></trkpt><trkpt lat="51.9012921955" lon="-1.7621173616"><ele>133.28</ele><time>2015-03-25T12:43:45Z</time></trkpt><trkpt lat="51.9013371225" lon="-1.7618007772"><ele>133.28</ele><time>2015-03-25T12:44:01Z</time></trkpt><trkpt lat="51.9013880845" lon="-1.7615944985"><ele>133.28</ele><time>2015-03-25T12:44:16Z</time></trkpt><trkpt lat="51.9014025852" lon="-1.7615024652"><ele>133.28</ele><time>2015-03-25T12:44:32Z</time></trkpt><trkpt lat="51.9013286568" lon="-1.7614504136"><ele>132.80</ele><time>2015-03-25T12:44:42Z</time></trkpt><trkpt lat="51.9012307562" lon="-1.7614562809"><ele>132.32</ele><time>2015-03-25T12:44:57Z</time></trkpt><trkpt lat="51.9010143355" lon="-1.7615302093"><ele>132.80</ele><time>2015-03-25T12:45:15Z</time></trkpt><trkpt lat="51.9008348789" lon="-1.7615538463"><ele>133.28</ele><time>2015-03-25T12:45:32Z</time></trkpt><trkpt lat="51.9006814901" lon="-1.7613828555"><ele>133.28</ele><time>2015-03-25T12:45:48Z</time></trkpt><trkpt lat="51.9005955756" lon="-1.7614178080"><ele>134.72</ele><time>2015-03-25T12:46:00Z</time></trkpt><trkpt lat="51.9005948212" lon="-1.7614349071"><ele>133.28</ele><time>2015-03-25T12:46:15Z</time></trkpt><trkpt lat="51.9005972520" lon="-1.7613976914"><ele>133.28</ele><time>2015-03-25T12:46:36Z</time></trkpt><trkpt lat="51.9005846791" lon="-1.7613214161"><ele>133.28</ele><time>2015-03-25T12:46:41Z</time></trkpt></trkseg></trk></gpx>